<?xml version="1.0" encoding="UTF-8" standalone="no" ?>
<gpx xmlns="http://www.topografix.com/GPX/1/1" xmlns:xsi="http://www.w3.org/2001/XMLSchema-instance" xsi:schemaLocation="http://www.topografix.com/GPX/1/1 http://www.topografix.com/GPX/1/1/gpx.xsd" version="1.1" creator="VisuGPX - https://www.visugpx.com">
  <metadata>
    <name>Les balades du confinement</name>
  </metadata>
  <trk>
    <name><![CDATA[31 mars]]></name>
    <trkseg>
      <trkpt lat="43.55039" lon="1.47679">
        <ele>174.17</ele>
        <time>2020-04-01T13:31:45Z</time>
      </trkpt>
      <trkpt lat="43.55017" lon="1.47678">
        <ele>164.977</ele>
        <time>2020-04-01T13:31:51Z</time>
      </trkpt>
      <trkpt lat="43.55027" lon="1.4768">
        <ele>195.791</ele>
        <time>2020-04-01T13:31:56Z</time>
      </trkpt>
      <trkpt lat="43.55032" lon="1.47675">
        <ele>219.378</ele>
        <time>2020-04-01T13:32:02Z</time>
      </trkpt>
      <trkpt lat="43.55032" lon="1.47675">
        <ele>214.225</ele>
        <time>2020-04-01T13:32:08Z</time>
      </trkpt>
      <trkpt lat="43.55032" lon="1.47675">
        <ele>217.895</ele>
        <time>2020-04-01T13:32:14Z</time>
      </trkpt>
      <trkpt lat="43.55032" lon="1.47675">
        <ele>217.86</ele>
        <time>2020-04-01T13:32:20Z</time>
      </trkpt>
      <trkpt lat="43.55038" lon="1.47678">
        <ele>217.877</ele>
        <time>2020-04-01T13:32:25Z</time>
      </trkpt>
      <trkpt lat="43.55038" lon="1.47678">
        <ele>217.977</ele>
        <time>2020-04-01T13:32:31Z</time>
      </trkpt>
      <trkpt lat="43.55038" lon="1.47678">
        <ele>218.169</ele>
        <time>2020-04-01T13:32:36Z</time>
      </trkpt>
      <trkpt lat="43.55038" lon="1.47678">
        <ele>217.995</ele>
        <time>2020-04-01T13:32:41Z</time>
      </trkpt>
      <trkpt lat="43.55038" lon="1.47678">
        <ele>217.87</ele>
        <time>2020-04-01T13:32:47Z</time>
      </trkpt>
      <trkpt lat="43.55038" lon="1.47678">
        <ele>216.777</ele>
        <time>2020-04-01T13:32:52Z</time>
      </trkpt>
      <trkpt lat="43.55035" lon="1.47675">
        <ele>216.058</ele>
        <time>2020-04-01T13:32:57Z</time>
      </trkpt>
      <trkpt lat="43.55035" lon="1.47675">
        <ele>215.704</ele>
        <time>2020-04-01T13:33:03Z</time>
      </trkpt>
      <trkpt lat="43.55038" lon="1.47672">
        <ele>214.436</ele>
        <time>2020-04-01T13:33:08Z</time>
      </trkpt>
      <trkpt lat="43.55044" lon="1.47664">
        <ele>213.223</ele>
        <time>2020-04-01T13:33:14Z</time>
      </trkpt>
      <trkpt lat="43.55049" lon="1.47661">
        <ele>212.47</ele>
        <time>2020-04-01T13:33:19Z</time>
      </trkpt>
      <trkpt lat="43.55053" lon="1.47658">
        <ele>211.859</ele>
        <time>2020-04-01T13:33:25Z</time>
      </trkpt>
      <trkpt lat="43.55057" lon="1.47654">
        <ele>211.455</ele>
        <time>2020-04-01T13:33:30Z</time>
      </trkpt>
      <trkpt lat="43.55063" lon="1.4765">
        <ele>211.059</ele>
        <time>2020-04-01T13:33:36Z</time>
      </trkpt>
      <trkpt lat="43.5507" lon="1.47647">
        <ele>210.82</ele>
        <time>2020-04-01T13:33:42Z</time>
      </trkpt>
      <trkpt lat="43.55071" lon="1.47648">
        <ele>210.712</ele>
        <time>2020-04-01T13:33:48Z</time>
      </trkpt>
      <trkpt lat="43.55071" lon="1.47648">
        <ele>210.677</ele>
        <time>2020-04-01T13:33:54Z</time>
      </trkpt>
      <trkpt lat="43.55071" lon="1.47648">
        <ele>210.64</ele>
        <time>2020-04-01T13:33:59Z</time>
      </trkpt>
      <trkpt lat="43.55071" lon="1.47648">
        <ele>210.587</ele>
        <time>2020-04-01T13:34:05Z</time>
      </trkpt>
      <trkpt lat="43.55071" lon="1.47648">
        <ele>210.541</ele>
        <time>2020-04-01T13:34:10Z</time>
      </trkpt>
      <trkpt lat="43.55072" lon="1.47648">
        <ele>210.258</ele>
        <time>2020-04-01T13:34:16Z</time>
      </trkpt>
      <trkpt lat="43.55072" lon="1.47647">
        <ele>210.067</ele>
        <time>2020-04-01T13:34:22Z</time>
      </trkpt>
      <trkpt lat="43.55072" lon="1.47647">
        <ele>210.03</ele>
        <time>2020-04-01T13:34:27Z</time>
      </trkpt>
      <trkpt lat="43.55072" lon="1.47647">
        <ele>209.998</ele>
        <time>2020-04-01T13:34:32Z</time>
      </trkpt>
      <trkpt lat="43.55072" lon="1.47647">
        <ele>209.914</ele>
        <time>2020-04-01T13:34:38Z</time>
      </trkpt>
      <trkpt lat="43.55073" lon="1.47645">
        <ele>209.83</ele>
        <time>2020-04-01T13:34:44Z</time>
      </trkpt>
      <trkpt lat="43.55073" lon="1.47645">
        <ele>209.606</ele>
        <time>2020-04-01T13:34:50Z</time>
      </trkpt>
      <trkpt lat="43.55074" lon="1.47641">
        <ele>209.298</ele>
        <time>2020-04-01T13:34:56Z</time>
      </trkpt>
      <trkpt lat="43.55075" lon="1.47641">
        <ele>209.127</ele>
        <time>2020-04-01T13:35:01Z</time>
      </trkpt>
      <trkpt lat="43.55075" lon="1.47641">
        <ele>209.047</ele>
        <time>2020-04-01T13:35:07Z</time>
      </trkpt>
      <trkpt lat="43.55075" lon="1.4764">
        <ele>208.929</ele>
        <time>2020-04-01T13:35:12Z</time>
      </trkpt>
      <trkpt lat="43.55075" lon="1.4764">
        <ele>208.904</ele>
        <time>2020-04-01T13:35:17Z</time>
      </trkpt>
      <trkpt lat="43.55075" lon="1.4764">
        <ele>208.88</ele>
        <time>2020-04-01T13:35:22Z</time>
      </trkpt>
      <trkpt lat="43.55075" lon="1.4764">
        <ele>208.854</ele>
        <time>2020-04-01T13:35:28Z</time>
      </trkpt>
      <trkpt lat="43.55075" lon="1.4764">
        <ele>208.833</ele>
        <time>2020-04-01T13:35:33Z</time>
      </trkpt>
      <trkpt lat="43.55076" lon="1.4764">
        <ele>208.813</ele>
        <time>2020-04-01T13:35:38Z</time>
      </trkpt>
      <trkpt lat="43.55076" lon="1.47641">
        <ele>208.796</ele>
        <time>2020-04-01T13:35:43Z</time>
      </trkpt>
      <trkpt lat="43.55076" lon="1.47641">
        <ele>208.778</ele>
        <time>2020-04-01T13:35:49Z</time>
      </trkpt>
      <trkpt lat="43.55076" lon="1.47642">
        <ele>208.737</ele>
        <time>2020-04-01T13:35:54Z</time>
      </trkpt>
      <trkpt lat="43.55076" lon="1.47642">
        <ele>208.697</ele>
        <time>2020-04-01T13:35:59Z</time>
      </trkpt>
      <trkpt lat="43.55076" lon="1.47642">
        <ele>208.681</ele>
        <time>2020-04-01T13:36:05Z</time>
      </trkpt>
      <trkpt lat="43.55076" lon="1.47641">
        <ele>208.643</ele>
        <time>2020-04-01T13:36:11Z</time>
      </trkpt>
      <trkpt lat="43.55076" lon="1.47641">
        <ele>208.628</ele>
        <time>2020-04-01T13:36:17Z</time>
      </trkpt>
      <trkpt lat="43.55076" lon="1.47642">
        <ele>208.612</ele>
        <time>2020-04-01T13:36:23Z</time>
      </trkpt>
      <trkpt lat="43.55076" lon="1.47641">
        <ele>208.575</ele>
        <time>2020-04-01T13:36:28Z</time>
      </trkpt>
      <trkpt lat="43.55076" lon="1.47641">
        <ele>208.558</ele>
        <time>2020-04-01T13:36:34Z</time>
      </trkpt>
      <trkpt lat="43.55076" lon="1.47641">
        <ele>208.508</ele>
        <time>2020-04-01T13:36:40Z</time>
      </trkpt>
      <trkpt lat="43.55076" lon="1.47642">
        <ele>208.488</ele>
        <time>2020-04-01T13:36:46Z</time>
      </trkpt>
      <trkpt lat="43.55076" lon="1.47643">
        <ele>208.467</ele>
        <time>2020-04-01T13:36:52Z</time>
      </trkpt>
      <trkpt lat="43.55076" lon="1.47644">
        <ele>208.423</ele>
        <time>2020-04-01T13:36:57Z</time>
      </trkpt>
      <trkpt lat="43.55076" lon="1.47646">
        <ele>208.303</ele>
        <time>2020-04-01T13:37:02Z</time>
      </trkpt>
      <trkpt lat="43.55077" lon="1.47646">
        <ele>208.267</ele>
        <time>2020-04-01T13:37:08Z</time>
      </trkpt>
      <trkpt lat="43.55077" lon="1.47645">
        <ele>208.255</ele>
        <time>2020-04-01T13:37:13Z</time>
      </trkpt>
      <trkpt lat="43.55077" lon="1.47645">
        <ele>208.2</ele>
        <time>2020-04-01T13:37:19Z</time>
      </trkpt>
      <trkpt lat="43.55077" lon="1.47645">
        <ele>208.189</ele>
        <time>2020-04-01T13:37:24Z</time>
      </trkpt>
      <trkpt lat="43.55077" lon="1.47644">
        <ele>208.156</ele>
        <time>2020-04-01T13:37:29Z</time>
      </trkpt>
      <trkpt lat="43.55077" lon="1.47643">
        <ele>208.122</ele>
        <time>2020-04-01T13:37:35Z</time>
      </trkpt>
      <trkpt lat="43.55076" lon="1.47644">
        <ele>208.11</ele>
        <time>2020-04-01T13:37:40Z</time>
      </trkpt>
      <trkpt lat="43.55076" lon="1.47645">
        <ele>208.096</ele>
        <time>2020-04-01T13:37:46Z</time>
      </trkpt>
      <trkpt lat="43.55076" lon="1.47645">
        <ele>208.085</ele>
        <time>2020-04-01T13:37:51Z</time>
      </trkpt>
      <trkpt lat="43.55076" lon="1.47646">
        <ele>208.037</ele>
        <time>2020-04-01T13:37:56Z</time>
      </trkpt>
      <trkpt lat="43.55076" lon="1.47645">
        <ele>208.024</ele>
        <time>2020-04-01T13:38:02Z</time>
      </trkpt>
      <trkpt lat="43.55076" lon="1.47644">
        <ele>207.974</ele>
        <time>2020-04-01T13:38:08Z</time>
      </trkpt>
      <trkpt lat="43.55076" lon="1.47644">
        <ele>207.965</ele>
        <time>2020-04-01T13:38:13Z</time>
      </trkpt>
      <trkpt lat="43.55078" lon="1.47645">
        <ele>207.901</ele>
        <time>2020-04-01T13:38:18Z</time>
      </trkpt>
      <trkpt lat="43.55082" lon="1.4764">
        <ele>207.828</ele>
        <time>2020-04-01T13:38:23Z</time>
      </trkpt>
      <trkpt lat="43.55091" lon="1.47631">
        <ele>207.752</ele>
        <time>2020-04-01T13:38:29Z</time>
      </trkpt>
      <trkpt lat="43.55102" lon="1.47629">
        <ele>207.693</ele>
        <time>2020-04-01T13:38:35Z</time>
      </trkpt>
      <trkpt lat="43.55111" lon="1.47623">
        <ele>207.645</ele>
        <time>2020-04-01T13:38:41Z</time>
      </trkpt>
      <trkpt lat="43.55116" lon="1.47617">
        <ele>207.609</ele>
        <time>2020-04-01T13:38:47Z</time>
      </trkpt>
      <trkpt lat="43.55121" lon="1.47615">
        <ele>207.581</ele>
        <time>2020-04-01T13:38:53Z</time>
      </trkpt>
      <trkpt lat="43.55124" lon="1.47617">
        <ele>207.558</ele>
        <time>2020-04-01T13:38:58Z</time>
      </trkpt>
      <trkpt lat="43.55127" lon="1.47619">
        <ele>207.534</ele>
        <time>2020-04-01T13:39:04Z</time>
      </trkpt>
      <trkpt lat="43.55134" lon="1.47618">
        <ele>207.526</ele>
        <time>2020-04-01T13:39:09Z</time>
      </trkpt>
      <trkpt lat="43.55142" lon="1.47616">
        <ele>207.525</ele>
        <time>2020-04-01T13:39:15Z</time>
      </trkpt>
      <trkpt lat="43.55149" lon="1.47612">
        <ele>207.527</ele>
        <time>2020-04-01T13:39:21Z</time>
      </trkpt>
      <trkpt lat="43.55155" lon="1.47607">
        <ele>207.527</ele>
        <time>2020-04-01T13:39:26Z</time>
      </trkpt>
      <trkpt lat="43.55162" lon="1.47603">
        <ele>207.527</ele>
        <time>2020-04-01T13:39:32Z</time>
      </trkpt>
      <trkpt lat="43.55168" lon="1.47601">
        <ele>207.528</ele>
        <time>2020-04-01T13:39:38Z</time>
      </trkpt>
      <trkpt lat="43.55172" lon="1.47596">
        <ele>207.53</ele>
        <time>2020-04-01T13:39:43Z</time>
      </trkpt>
      <trkpt lat="43.55178" lon="1.47584">
        <ele>207.543</ele>
        <time>2020-04-01T13:39:49Z</time>
      </trkpt>
      <trkpt lat="43.55182" lon="1.47575">
        <ele>207.56</ele>
        <time>2020-04-01T13:39:55Z</time>
      </trkpt>
      <trkpt lat="43.55186" lon="1.4757">
        <ele>207.576</ele>
        <time>2020-04-01T13:40:01Z</time>
      </trkpt>
      <trkpt lat="43.5519" lon="1.47564">
        <ele>207.59</ele>
        <time>2020-04-01T13:40:07Z</time>
      </trkpt>
      <trkpt lat="43.55196" lon="1.47564">
        <ele>207.605</ele>
        <time>2020-04-01T13:40:13Z</time>
      </trkpt>
      <trkpt lat="43.552" lon="1.4756">
        <ele>207.616</ele>
        <time>2020-04-01T13:40:19Z</time>
      </trkpt>
      <trkpt lat="43.55203" lon="1.47555">
        <ele>207.622</ele>
        <time>2020-04-01T13:40:24Z</time>
      </trkpt>
      <trkpt lat="43.55207" lon="1.47551">
        <ele>207.63</ele>
        <time>2020-04-01T13:40:30Z</time>
      </trkpt>
      <trkpt lat="43.55214" lon="1.47546">
        <ele>207.636</ele>
        <time>2020-04-01T13:40:36Z</time>
      </trkpt>
      <trkpt lat="43.55212" lon="1.47549">
        <ele>207.636</ele>
        <time>2020-04-01T13:40:42Z</time>
      </trkpt>
      <trkpt lat="43.55221" lon="1.47539">
        <ele>207.636</ele>
        <time>2020-04-01T13:40:48Z</time>
      </trkpt>
      <trkpt lat="43.55228" lon="1.47534">
        <ele>207.638</ele>
        <time>2020-04-01T13:40:53Z</time>
      </trkpt>
      <trkpt lat="43.55233" lon="1.47533">
        <ele>207.642</ele>
        <time>2020-04-01T13:40:58Z</time>
      </trkpt>
      <trkpt lat="43.55239" lon="1.4754">
        <ele>207.648</ele>
        <time>2020-04-01T13:41:04Z</time>
      </trkpt>
      <trkpt lat="43.55246" lon="1.47542">
        <ele>207.655</ele>
        <time>2020-04-01T13:41:10Z</time>
      </trkpt>
      <trkpt lat="43.55248" lon="1.47547">
        <ele>207.658</ele>
        <time>2020-04-01T13:41:16Z</time>
      </trkpt>
      <trkpt lat="43.55254" lon="1.47549">
        <ele>207.658</ele>
        <time>2020-04-01T13:41:21Z</time>
      </trkpt>
      <trkpt lat="43.55259" lon="1.47551">
        <ele>207.659</ele>
        <time>2020-04-01T13:41:27Z</time>
      </trkpt>
      <trkpt lat="43.55258" lon="1.47554">
        <ele>207.662</ele>
        <time>2020-04-01T13:41:32Z</time>
      </trkpt>
      <trkpt lat="43.55259" lon="1.47556">
        <ele>207.672</ele>
        <time>2020-04-01T13:41:38Z</time>
      </trkpt>
      <trkpt lat="43.55267" lon="1.47555">
        <ele>207.692</ele>
        <time>2020-04-01T13:41:44Z</time>
      </trkpt>
      <trkpt lat="43.55275" lon="1.47552">
        <ele>207.717</ele>
        <time>2020-04-01T13:41:50Z</time>
      </trkpt>
      <trkpt lat="43.55282" lon="1.4755">
        <ele>207.738</ele>
        <time>2020-04-01T13:41:55Z</time>
      </trkpt>
      <trkpt lat="43.55292" lon="1.47542">
        <ele>207.726</ele>
        <time>2020-04-01T13:42:01Z</time>
      </trkpt>
      <trkpt lat="43.55299" lon="1.47539">
        <ele>207.649</ele>
        <time>2020-04-01T13:42:07Z</time>
      </trkpt>
      <trkpt lat="43.553" lon="1.47538">
        <ele>207.551</ele>
        <time>2020-04-01T13:42:13Z</time>
      </trkpt>
      <trkpt lat="43.55302" lon="1.47536">
        <ele>207.404</ele>
        <time>2020-04-01T13:42:19Z</time>
      </trkpt>
      <trkpt lat="43.55312" lon="1.4753">
        <ele>207.286</ele>
        <time>2020-04-01T13:42:24Z</time>
      </trkpt>
      <trkpt lat="43.55315" lon="1.47535">
        <ele>207.205</ele>
        <time>2020-04-01T13:42:29Z</time>
      </trkpt>
      <trkpt lat="43.55315" lon="1.47548">
        <ele>207.166</ele>
        <time>2020-04-01T13:42:35Z</time>
      </trkpt>
      <trkpt lat="43.55317" lon="1.47556">
        <ele>207.12</ele>
        <time>2020-04-01T13:42:40Z</time>
      </trkpt>
      <trkpt lat="43.55322" lon="1.47564">
        <ele>207.067</ele>
        <time>2020-04-01T13:42:46Z</time>
      </trkpt>
      <trkpt lat="43.55326" lon="1.47571">
        <ele>207.038</ele>
        <time>2020-04-01T13:42:52Z</time>
      </trkpt>
      <trkpt lat="43.55329" lon="1.47574">
        <ele>206.983</ele>
        <time>2020-04-01T13:42:57Z</time>
      </trkpt>
      <trkpt lat="43.55335" lon="1.47574">
        <ele>206.912</ele>
        <time>2020-04-01T13:43:03Z</time>
      </trkpt>
      <trkpt lat="43.5534" lon="1.47574">
        <ele>206.875</ele>
        <time>2020-04-01T13:43:08Z</time>
      </trkpt>
      <trkpt lat="43.55346" lon="1.47573">
        <ele>206.824</ele>
        <time>2020-04-01T13:43:14Z</time>
      </trkpt>
      <trkpt lat="43.55352" lon="1.47568">
        <ele>206.773</ele>
        <time>2020-04-01T13:43:20Z</time>
      </trkpt>
      <trkpt lat="43.55359" lon="1.47569">
        <ele>206.788</ele>
        <time>2020-04-01T13:43:25Z</time>
      </trkpt>
      <trkpt lat="43.55367" lon="1.47574">
        <ele>206.857</ele>
        <time>2020-04-01T13:43:31Z</time>
      </trkpt>
      <trkpt lat="43.55372" lon="1.47564">
        <ele>206.961</ele>
        <time>2020-04-01T13:43:37Z</time>
      </trkpt>
      <trkpt lat="43.55378" lon="1.47556">
        <ele>207.071</ele>
        <time>2020-04-01T13:43:42Z</time>
      </trkpt>
      <trkpt lat="43.55379" lon="1.47544">
        <ele>207.213</ele>
        <time>2020-04-01T13:43:48Z</time>
      </trkpt>
      <trkpt lat="43.55379" lon="1.47534">
        <ele>207.344</ele>
        <time>2020-04-01T13:43:53Z</time>
      </trkpt>
      <trkpt lat="43.55381" lon="1.47528">
        <ele>207.523</ele>
        <time>2020-04-01T13:43:59Z</time>
      </trkpt>
      <trkpt lat="43.55381" lon="1.47518">
        <ele>207.717</ele>
        <time>2020-04-01T13:44:05Z</time>
      </trkpt>
      <trkpt lat="43.55379" lon="1.47509">
        <ele>207.894</ele>
        <time>2020-04-01T13:44:10Z</time>
      </trkpt>
      <trkpt lat="43.55382" lon="1.47502">
        <ele>208.112</ele>
        <time>2020-04-01T13:44:16Z</time>
      </trkpt>
      <trkpt lat="43.55385" lon="1.47496">
        <ele>208.282</ele>
        <time>2020-04-01T13:44:21Z</time>
      </trkpt>
      <trkpt lat="43.55387" lon="1.47489">
        <ele>208.472</ele>
        <time>2020-04-01T13:44:27Z</time>
      </trkpt>
      <trkpt lat="43.55387" lon="1.4748">
        <ele>208.656</ele>
        <time>2020-04-01T13:44:33Z</time>
      </trkpt>
      <trkpt lat="43.55386" lon="1.47472">
        <ele>208.805</ele>
        <time>2020-04-01T13:44:38Z</time>
      </trkpt>
      <trkpt lat="43.55385" lon="1.47464">
        <ele>208.949</ele>
        <time>2020-04-01T13:44:43Z</time>
      </trkpt>
      <trkpt lat="43.55386" lon="1.47457">
        <ele>209.09</ele>
        <time>2020-04-01T13:44:48Z</time>
      </trkpt>
      <trkpt lat="43.55386" lon="1.47447">
        <ele>209.265</ele>
        <time>2020-04-01T13:44:54Z</time>
      </trkpt>
      <trkpt lat="43.55385" lon="1.47438">
        <ele>209.45</ele>
        <time>2020-04-01T13:45:00Z</time>
      </trkpt>
      <trkpt lat="43.55383" lon="1.47432">
        <ele>209.616</ele>
        <time>2020-04-01T13:45:05Z</time>
      </trkpt>
      <trkpt lat="43.55381" lon="1.4742">
        <ele>209.824</ele>
        <time>2020-04-01T13:45:11Z</time>
      </trkpt>
      <trkpt lat="43.55381" lon="1.47413">
        <ele>210.003</ele>
        <time>2020-04-01T13:45:16Z</time>
      </trkpt>
      <trkpt lat="43.55381" lon="1.47407">
        <ele>210.182</ele>
        <time>2020-04-01T13:45:21Z</time>
      </trkpt>
      <trkpt lat="43.55379" lon="1.47398">
        <ele>210.4</ele>
        <time>2020-04-01T13:45:27Z</time>
      </trkpt>
      <trkpt lat="43.5538" lon="1.47393">
        <ele>210.57</ele>
        <time>2020-04-01T13:45:32Z</time>
      </trkpt>
      <trkpt lat="43.5538" lon="1.47386">
        <ele>210.754</ele>
        <time>2020-04-01T13:45:38Z</time>
      </trkpt>
      <trkpt lat="43.55381" lon="1.47379">
        <ele>210.915</ele>
        <time>2020-04-01T13:45:44Z</time>
      </trkpt>
      <trkpt lat="43.55378" lon="1.47373">
        <ele>211.056</ele>
        <time>2020-04-01T13:45:50Z</time>
      </trkpt>
      <trkpt lat="43.55372" lon="1.47365">
        <ele>211.143</ele>
        <time>2020-04-01T13:45:55Z</time>
      </trkpt>
      <trkpt lat="43.5537" lon="1.47356">
        <ele>211.232</ele>
        <time>2020-04-01T13:46:01Z</time>
      </trkpt>
      <trkpt lat="43.55371" lon="1.47345">
        <ele>211.333</ele>
        <time>2020-04-01T13:46:07Z</time>
      </trkpt>
      <trkpt lat="43.5537" lon="1.47338">
        <ele>211.413</ele>
        <time>2020-04-01T13:46:12Z</time>
      </trkpt>
      <trkpt lat="43.5537" lon="1.47331">
        <ele>211.488</ele>
        <time>2020-04-01T13:46:17Z</time>
      </trkpt>
      <trkpt lat="43.55371" lon="1.4733">
        <ele>211.509</ele>
        <time>2020-04-01T13:46:22Z</time>
      </trkpt>
      <trkpt lat="43.55371" lon="1.47325">
        <ele>211.592</ele>
        <time>2020-04-01T13:46:28Z</time>
      </trkpt>
      <trkpt lat="43.5537" lon="1.47317">
        <ele>211.675</ele>
        <time>2020-04-01T13:46:34Z</time>
      </trkpt>
      <trkpt lat="43.55369" lon="1.4731">
        <ele>211.737</ele>
        <time>2020-04-01T13:46:39Z</time>
      </trkpt>
      <trkpt lat="43.55369" lon="1.47306">
        <ele>211.773</ele>
        <time>2020-04-01T13:46:44Z</time>
      </trkpt>
      <trkpt lat="43.55369" lon="1.47302">
        <ele>211.822</ele>
        <time>2020-04-01T13:46:49Z</time>
      </trkpt>
      <trkpt lat="43.55367" lon="1.47293">
        <ele>211.868</ele>
        <time>2020-04-01T13:46:55Z</time>
      </trkpt>
      <trkpt lat="43.55366" lon="1.47284">
        <ele>211.898</ele>
        <time>2020-04-01T13:47:01Z</time>
      </trkpt>
      <trkpt lat="43.55364" lon="1.47274">
        <ele>211.919</ele>
        <time>2020-04-01T13:47:07Z</time>
      </trkpt>
      <trkpt lat="43.55362" lon="1.47264">
        <ele>211.937</ele>
        <time>2020-04-01T13:47:12Z</time>
      </trkpt>
      <trkpt lat="43.55363" lon="1.47256">
        <ele>211.98</ele>
        <time>2020-04-01T13:47:18Z</time>
      </trkpt>
      <trkpt lat="43.55362" lon="1.47252">
        <ele>212.015</ele>
        <time>2020-04-01T13:47:23Z</time>
      </trkpt>
      <trkpt lat="43.55362" lon="1.47244">
        <ele>212.056</ele>
        <time>2020-04-01T13:47:29Z</time>
      </trkpt>
      <trkpt lat="43.5536" lon="1.47236">
        <ele>212.096</ele>
        <time>2020-04-01T13:47:35Z</time>
      </trkpt>
      <trkpt lat="43.55355" lon="1.47227">
        <ele>212.132</ele>
        <time>2020-04-01T13:47:41Z</time>
      </trkpt>
      <trkpt lat="43.55351" lon="1.47223">
        <ele>212.174</ele>
        <time>2020-04-01T13:47:47Z</time>
      </trkpt>
      <trkpt lat="43.5535" lon="1.4722">
        <ele>212.202</ele>
        <time>2020-04-01T13:47:52Z</time>
      </trkpt>
      <trkpt lat="43.55351" lon="1.47215">
        <ele>212.246</ele>
        <time>2020-04-01T13:47:58Z</time>
      </trkpt>
      <trkpt lat="43.55352" lon="1.47211">
        <ele>212.284</ele>
        <time>2020-04-01T13:48:03Z</time>
      </trkpt>
      <trkpt lat="43.55352" lon="1.47206">
        <ele>212.331</ele>
        <time>2020-04-01T13:48:09Z</time>
      </trkpt>
      <trkpt lat="43.55355" lon="1.47199">
        <ele>212.371</ele>
        <time>2020-04-01T13:48:14Z</time>
      </trkpt>
      <trkpt lat="43.55359" lon="1.47193">
        <ele>212.413</ele>
        <time>2020-04-01T13:48:19Z</time>
      </trkpt>
      <trkpt lat="43.55364" lon="1.47186">
        <ele>212.468</ele>
        <time>2020-04-01T13:48:25Z</time>
      </trkpt>
      <trkpt lat="43.55368" lon="1.47178">
        <ele>212.517</ele>
        <time>2020-04-01T13:48:30Z</time>
      </trkpt>
      <trkpt lat="43.55372" lon="1.47173">
        <ele>212.57</ele>
        <time>2020-04-01T13:48:36Z</time>
      </trkpt>
      <trkpt lat="43.55376" lon="1.47167">
        <ele>212.616</ele>
        <time>2020-04-01T13:48:42Z</time>
      </trkpt>
      <trkpt lat="43.55379" lon="1.47164">
        <ele>212.657</ele>
        <time>2020-04-01T13:48:47Z</time>
      </trkpt>
      <trkpt lat="43.55382" lon="1.47163">
        <ele>212.712</ele>
        <time>2020-04-01T13:48:53Z</time>
      </trkpt>
      <trkpt lat="43.55389" lon="1.47156">
        <ele>212.77</ele>
        <time>2020-04-01T13:48:59Z</time>
      </trkpt>
      <trkpt lat="43.55391" lon="1.47154">
        <ele>212.817</ele>
        <time>2020-04-01T13:49:05Z</time>
      </trkpt>
      <trkpt lat="43.55391" lon="1.47153">
        <ele>212.871</ele>
        <time>2020-04-01T13:49:11Z</time>
      </trkpt>
      <trkpt lat="43.55392" lon="1.4715">
        <ele>212.918</ele>
        <time>2020-04-01T13:49:16Z</time>
      </trkpt>
      <trkpt lat="43.55393" lon="1.47143">
        <ele>212.962</ele>
        <time>2020-04-01T13:49:22Z</time>
      </trkpt>
      <trkpt lat="43.55392" lon="1.47138">
        <ele>212.991</ele>
        <time>2020-04-01T13:49:27Z</time>
      </trkpt>
      <trkpt lat="43.55391" lon="1.47134">
        <ele>213.015</ele>
        <time>2020-04-01T13:49:32Z</time>
      </trkpt>
      <trkpt lat="43.55392" lon="1.47129">
        <ele>213.036</ele>
        <time>2020-04-01T13:49:38Z</time>
      </trkpt>
      <trkpt lat="43.55392" lon="1.47122">
        <ele>213.046</ele>
        <time>2020-04-01T13:49:43Z</time>
      </trkpt>
      <trkpt lat="43.55393" lon="1.47112">
        <ele>213.052</ele>
        <time>2020-04-01T13:49:49Z</time>
      </trkpt>
      <trkpt lat="43.55394" lon="1.47105">
        <ele>213.045</ele>
        <time>2020-04-01T13:49:54Z</time>
      </trkpt>
      <trkpt lat="43.55394" lon="1.47104">
        <ele>213.041</ele>
        <time>2020-04-01T13:50:00Z</time>
      </trkpt>
      <trkpt lat="43.55394" lon="1.47097">
        <ele>213.028</ele>
        <time>2020-04-01T13:50:06Z</time>
      </trkpt>
      <trkpt lat="43.55395" lon="1.4709">
        <ele>213.02</ele>
        <time>2020-04-01T13:50:11Z</time>
      </trkpt>
      <trkpt lat="43.55395" lon="1.47083">
        <ele>213.01</ele>
        <time>2020-04-01T13:50:17Z</time>
      </trkpt>
      <trkpt lat="43.55395" lon="1.47076">
        <ele>213.002</ele>
        <time>2020-04-01T13:50:22Z</time>
      </trkpt>
      <trkpt lat="43.55394" lon="1.47068">
        <ele>212.994</ele>
        <time>2020-04-01T13:50:28Z</time>
      </trkpt>
      <trkpt lat="43.55394" lon="1.47062">
        <ele>212.989</ele>
        <time>2020-04-01T13:50:33Z</time>
      </trkpt>
      <trkpt lat="43.55396" lon="1.47053">
        <ele>212.983</ele>
        <time>2020-04-01T13:50:39Z</time>
      </trkpt>
      <trkpt lat="43.55396" lon="1.47045">
        <ele>212.981</ele>
        <time>2020-04-01T13:50:44Z</time>
      </trkpt>
      <trkpt lat="43.55398" lon="1.47036">
        <ele>212.984</ele>
        <time>2020-04-01T13:50:50Z</time>
      </trkpt>
      <trkpt lat="43.55398" lon="1.47028">
        <ele>212.989</ele>
        <time>2020-04-01T13:50:55Z</time>
      </trkpt>
      <trkpt lat="43.55399" lon="1.47019">
        <ele>212.998</ele>
        <time>2020-04-01T13:51:01Z</time>
      </trkpt>
      <trkpt lat="43.55399" lon="1.47013">
        <ele>213.007</ele>
        <time>2020-04-01T13:51:06Z</time>
      </trkpt>
      <trkpt lat="43.554" lon="1.47002">
        <ele>213.025</ele>
        <time>2020-04-01T13:51:12Z</time>
      </trkpt>
      <trkpt lat="43.55403" lon="1.46994">
        <ele>213.05</ele>
        <time>2020-04-01T13:51:18Z</time>
      </trkpt>
      <trkpt lat="43.55405" lon="1.46986">
        <ele>213.078</ele>
        <time>2020-04-01T13:51:24Z</time>
      </trkpt>
      <trkpt lat="43.55406" lon="1.46982">
        <ele>213.105</ele>
        <time>2020-04-01T13:51:30Z</time>
      </trkpt>
      <trkpt lat="43.55409" lon="1.46973">
        <ele>213.128</ele>
        <time>2020-04-01T13:51:36Z</time>
      </trkpt>
      <trkpt lat="43.55411" lon="1.46965">
        <ele>213.145</ele>
        <time>2020-04-01T13:51:42Z</time>
      </trkpt>
      <trkpt lat="43.55412" lon="1.4696">
        <ele>213.154</ele>
        <time>2020-04-01T13:51:48Z</time>
      </trkpt>
      <trkpt lat="43.55414" lon="1.46955">
        <ele>213.158</ele>
        <time>2020-04-01T13:51:53Z</time>
      </trkpt>
      <trkpt lat="43.55417" lon="1.46949">
        <ele>213.157</ele>
        <time>2020-04-01T13:51:59Z</time>
      </trkpt>
      <trkpt lat="43.55421" lon="1.46941">
        <ele>213.155</ele>
        <time>2020-04-01T13:52:05Z</time>
      </trkpt>
      <trkpt lat="43.55424" lon="1.46935">
        <ele>213.148</ele>
        <time>2020-04-01T13:52:10Z</time>
      </trkpt>
      <trkpt lat="43.55428" lon="1.46925">
        <ele>213.133</ele>
        <time>2020-04-01T13:52:16Z</time>
      </trkpt>
      <trkpt lat="43.55432" lon="1.46915">
        <ele>213.114</ele>
        <time>2020-04-01T13:52:22Z</time>
      </trkpt>
      <trkpt lat="43.55434" lon="1.46906">
        <ele>213.101</ele>
        <time>2020-04-01T13:52:27Z</time>
      </trkpt>
      <trkpt lat="43.55436" lon="1.46896">
        <ele>213.089</ele>
        <time>2020-04-01T13:52:33Z</time>
      </trkpt>
      <trkpt lat="43.55438" lon="1.4689">
        <ele>213.077</ele>
        <time>2020-04-01T13:52:38Z</time>
      </trkpt>
      <trkpt lat="43.55441" lon="1.46883">
        <ele>213.065</ele>
        <time>2020-04-01T13:52:44Z</time>
      </trkpt>
      <trkpt lat="43.55444" lon="1.46877">
        <ele>213.055</ele>
        <time>2020-04-01T13:52:49Z</time>
      </trkpt>
      <trkpt lat="43.55448" lon="1.46867">
        <ele>213.05</ele>
        <time>2020-04-01T13:52:55Z</time>
      </trkpt>
      <trkpt lat="43.55451" lon="1.46859">
        <ele>213.066</ele>
        <time>2020-04-01T13:53:00Z</time>
      </trkpt>
      <trkpt lat="43.55455" lon="1.46853">
        <ele>213.097</ele>
        <time>2020-04-01T13:53:06Z</time>
      </trkpt>
      <trkpt lat="43.55458" lon="1.46844">
        <ele>213.137</ele>
        <time>2020-04-01T13:53:12Z</time>
      </trkpt>
      <trkpt lat="43.55461" lon="1.46838">
        <ele>213.176</ele>
        <time>2020-04-01T13:53:17Z</time>
      </trkpt>
      <trkpt lat="43.55463" lon="1.4683">
        <ele>213.221</ele>
        <time>2020-04-01T13:53:23Z</time>
      </trkpt>
      <trkpt lat="43.55467" lon="1.46821">
        <ele>213.263</ele>
        <time>2020-04-01T13:53:29Z</time>
      </trkpt>
      <trkpt lat="43.55471" lon="1.46814">
        <ele>213.306</ele>
        <time>2020-04-01T13:53:35Z</time>
      </trkpt>
      <trkpt lat="43.55474" lon="1.46804">
        <ele>213.342</ele>
        <time>2020-04-01T13:53:40Z</time>
      </trkpt>
      <trkpt lat="43.55476" lon="1.46793">
        <ele>213.395</ele>
        <time>2020-04-01T13:53:46Z</time>
      </trkpt>
      <trkpt lat="43.5548" lon="1.46787">
        <ele>213.45</ele>
        <time>2020-04-01T13:53:52Z</time>
      </trkpt>
      <trkpt lat="43.55476" lon="1.4678">
        <ele>213.494</ele>
        <time>2020-04-01T13:53:57Z</time>
      </trkpt>
      <trkpt lat="43.55471" lon="1.46774">
        <ele>213.541</ele>
        <time>2020-04-01T13:54:03Z</time>
      </trkpt>
      <trkpt lat="43.55468" lon="1.46769">
        <ele>213.574</ele>
        <time>2020-04-01T13:54:08Z</time>
      </trkpt>
      <trkpt lat="43.55464" lon="1.46762">
        <ele>213.609</ele>
        <time>2020-04-01T13:54:14Z</time>
      </trkpt>
      <trkpt lat="43.55461" lon="1.46754">
        <ele>213.647</ele>
        <time>2020-04-01T13:54:20Z</time>
      </trkpt>
      <trkpt lat="43.5546" lon="1.46744">
        <ele>213.689</ele>
        <time>2020-04-01T13:54:26Z</time>
      </trkpt>
      <trkpt lat="43.55461" lon="1.46735">
        <ele>213.737</ele>
        <time>2020-04-01T13:54:32Z</time>
      </trkpt>
      <trkpt lat="43.55462" lon="1.46727">
        <ele>213.788</ele>
        <time>2020-04-01T13:54:37Z</time>
      </trkpt>
      <trkpt lat="43.55466" lon="1.46719">
        <ele>213.855</ele>
        <time>2020-04-01T13:54:43Z</time>
      </trkpt>
      <trkpt lat="43.5547" lon="1.46709">
        <ele>213.93</ele>
        <time>2020-04-01T13:54:49Z</time>
      </trkpt>
      <trkpt lat="43.55473" lon="1.46702">
        <ele>214.01</ele>
        <time>2020-04-01T13:54:55Z</time>
      </trkpt>
      <trkpt lat="43.55475" lon="1.46696">
        <ele>214.091</ele>
        <time>2020-04-01T13:55:01Z</time>
      </trkpt>
      <trkpt lat="43.55478" lon="1.46692">
        <ele>214.152</ele>
        <time>2020-04-01T13:55:06Z</time>
      </trkpt>
      <trkpt lat="43.55483" lon="1.46687">
        <ele>214.217</ele>
        <time>2020-04-01T13:55:12Z</time>
      </trkpt>
      <trkpt lat="43.55487" lon="1.46683">
        <ele>214.266</ele>
        <time>2020-04-01T13:55:17Z</time>
      </trkpt>
      <trkpt lat="43.5549" lon="1.46678">
        <ele>214.307</ele>
        <time>2020-04-01T13:55:22Z</time>
      </trkpt>
      <trkpt lat="43.55494" lon="1.46673">
        <ele>214.344</ele>
        <time>2020-04-01T13:55:28Z</time>
      </trkpt>
      <trkpt lat="43.55499" lon="1.46667">
        <ele>214.368</ele>
        <time>2020-04-01T13:55:34Z</time>
      </trkpt>
      <trkpt lat="43.55504" lon="1.46663">
        <ele>214.379</ele>
        <time>2020-04-01T13:55:39Z</time>
      </trkpt>
      <trkpt lat="43.55512" lon="1.46659">
        <ele>214.384</ele>
        <time>2020-04-01T13:55:44Z</time>
      </trkpt>
      <trkpt lat="43.5552" lon="1.46654">
        <ele>214.391</ele>
        <time>2020-04-01T13:55:50Z</time>
      </trkpt>
      <trkpt lat="43.55527" lon="1.46647">
        <ele>214.407</ele>
        <time>2020-04-01T13:55:56Z</time>
      </trkpt>
      <trkpt lat="43.55531" lon="1.46644">
        <ele>214.423</ele>
        <time>2020-04-01T13:56:02Z</time>
      </trkpt>
      <trkpt lat="43.55536" lon="1.46639">
        <ele>214.446</ele>
        <time>2020-04-01T13:56:08Z</time>
      </trkpt>
      <trkpt lat="43.5554" lon="1.46635">
        <ele>214.472</ele>
        <time>2020-04-01T13:56:13Z</time>
      </trkpt>
      <trkpt lat="43.55544" lon="1.4663">
        <ele>214.501</ele>
        <time>2020-04-01T13:56:18Z</time>
      </trkpt>
      <trkpt lat="43.55549" lon="1.46625">
        <ele>214.531</ele>
        <time>2020-04-01T13:56:23Z</time>
      </trkpt>
      <trkpt lat="43.55554" lon="1.4662">
        <ele>214.565</ele>
        <time>2020-04-01T13:56:29Z</time>
      </trkpt>
      <trkpt lat="43.5556" lon="1.46616">
        <ele>214.591</ele>
        <time>2020-04-01T13:56:34Z</time>
      </trkpt>
      <trkpt lat="43.55566" lon="1.4661">
        <ele>214.618</ele>
        <time>2020-04-01T13:56:40Z</time>
      </trkpt>
      <trkpt lat="43.55569" lon="1.46605">
        <ele>214.632</ele>
        <time>2020-04-01T13:56:46Z</time>
      </trkpt>
      <trkpt lat="43.5557" lon="1.46606">
        <ele>214.637</ele>
        <time>2020-04-01T13:56:51Z</time>
      </trkpt>
      <trkpt lat="43.55569" lon="1.46606">
        <ele>214.648</ele>
        <time>2020-04-01T13:56:57Z</time>
      </trkpt>
      <trkpt lat="43.55563" lon="1.46612">
        <ele>214.652</ele>
        <time>2020-04-01T13:57:03Z</time>
      </trkpt>
      <trkpt lat="43.5556" lon="1.46614">
        <ele>214.65</ele>
        <time>2020-04-01T13:57:08Z</time>
      </trkpt>
      <trkpt lat="43.55555" lon="1.46618">
        <ele>214.643</ele>
        <time>2020-04-01T13:57:14Z</time>
      </trkpt>
      <trkpt lat="43.55551" lon="1.46621">
        <ele>214.634</ele>
        <time>2020-04-01T13:57:19Z</time>
      </trkpt>
      <trkpt lat="43.55547" lon="1.46624">
        <ele>214.621</ele>
        <time>2020-04-01T13:57:24Z</time>
      </trkpt>
      <trkpt lat="43.55541" lon="1.46628">
        <ele>214.598</ele>
        <time>2020-04-01T13:57:30Z</time>
      </trkpt>
      <trkpt lat="43.55535" lon="1.46635">
        <ele>214.557</ele>
        <time>2020-04-01T13:57:36Z</time>
      </trkpt>
      <trkpt lat="43.5553" lon="1.46638">
        <ele>214.521</ele>
        <time>2020-04-01T13:57:41Z</time>
      </trkpt>
      <trkpt lat="43.55525" lon="1.46642">
        <ele>214.486</ele>
        <time>2020-04-01T13:57:46Z</time>
      </trkpt>
      <trkpt lat="43.55521" lon="1.46648">
        <ele>214.441</ele>
        <time>2020-04-01T13:57:52Z</time>
      </trkpt>
      <trkpt lat="43.55519" lon="1.46653">
        <ele>214.41</ele>
        <time>2020-04-01T13:57:57Z</time>
      </trkpt>
      <trkpt lat="43.55519" lon="1.46653">
        <ele>214.388</ele>
        <time>2020-04-01T13:58:02Z</time>
      </trkpt>
      <trkpt lat="43.55515" lon="1.46656">
        <ele>214.329</ele>
        <time>2020-04-01T13:58:08Z</time>
      </trkpt>
      <trkpt lat="43.5551" lon="1.4666">
        <ele>214.277</ele>
        <time>2020-04-01T13:58:13Z</time>
      </trkpt>
      <trkpt lat="43.55505" lon="1.46664">
        <ele>214.218</ele>
        <time>2020-04-01T13:58:19Z</time>
      </trkpt>
      <trkpt lat="43.55499" lon="1.46667">
        <ele>214.158</ele>
        <time>2020-04-01T13:58:25Z</time>
      </trkpt>
      <trkpt lat="43.55493" lon="1.46668">
        <ele>214.097</ele>
        <time>2020-04-01T13:58:31Z</time>
      </trkpt>
      <trkpt lat="43.5549" lon="1.46668">
        <ele>214.05</ele>
        <time>2020-04-01T13:58:36Z</time>
      </trkpt>
      <trkpt lat="43.55484" lon="1.46669">
        <ele>214.003</ele>
        <time>2020-04-01T13:58:42Z</time>
      </trkpt>
      <trkpt lat="43.55479" lon="1.46669">
        <ele>213.975</ele>
        <time>2020-04-01T13:58:47Z</time>
      </trkpt>
      <trkpt lat="43.55475" lon="1.46668">
        <ele>213.956</ele>
        <time>2020-04-01T13:58:52Z</time>
      </trkpt>
      <trkpt lat="43.55471" lon="1.46669">
        <ele>213.945</ele>
        <time>2020-04-01T13:58:57Z</time>
      </trkpt>
      <trkpt lat="43.55465" lon="1.46671">
        <ele>213.944</ele>
        <time>2020-04-01T13:59:02Z</time>
      </trkpt>
      <trkpt lat="43.5546" lon="1.4667">
        <ele>213.945</ele>
        <time>2020-04-01T13:59:07Z</time>
      </trkpt>
      <trkpt lat="43.55454" lon="1.46669">
        <ele>213.953</ele>
        <time>2020-04-01T13:59:13Z</time>
      </trkpt>
      <trkpt lat="43.5545" lon="1.46668">
        <ele>213.965</ele>
        <time>2020-04-01T13:59:19Z</time>
      </trkpt>
      <trkpt lat="43.55445" lon="1.46668">
        <ele>213.978</ele>
        <time>2020-04-01T13:59:24Z</time>
      </trkpt>
      <trkpt lat="43.5544" lon="1.46669">
        <ele>214.002</ele>
        <time>2020-04-01T13:59:29Z</time>
      </trkpt>
      <trkpt lat="43.55437" lon="1.4667">
        <ele>214.025</ele>
        <time>2020-04-01T13:59:34Z</time>
      </trkpt>
      <trkpt lat="43.55431" lon="1.46672">
        <ele>214.051</ele>
        <time>2020-04-01T13:59:40Z</time>
      </trkpt>
      <trkpt lat="43.55424" lon="1.46672">
        <ele>214.076</ele>
        <time>2020-04-01T13:59:46Z</time>
      </trkpt>
      <trkpt lat="43.55416" lon="1.46672">
        <ele>214.096</ele>
        <time>2020-04-01T13:59:52Z</time>
      </trkpt>
      <trkpt lat="43.5541" lon="1.46672">
        <ele>214.112</ele>
        <time>2020-04-01T13:59:57Z</time>
      </trkpt>
      <trkpt lat="43.55405" lon="1.46673">
        <ele>214.131</ele>
        <time>2020-04-01T14:00:03Z</time>
      </trkpt>
      <trkpt lat="43.55398" lon="1.46674">
        <ele>214.15</ele>
        <time>2020-04-01T14:00:09Z</time>
      </trkpt>
      <trkpt lat="43.55393" lon="1.46675">
        <ele>214.17</ele>
        <time>2020-04-01T14:00:15Z</time>
      </trkpt>
      <trkpt lat="43.55389" lon="1.46675">
        <ele>214.188</ele>
        <time>2020-04-01T14:00:20Z</time>
      </trkpt>
      <trkpt lat="43.55384" lon="1.46675">
        <ele>214.206</ele>
        <time>2020-04-01T14:00:25Z</time>
      </trkpt>
      <trkpt lat="43.55379" lon="1.46675">
        <ele>214.227</ele>
        <time>2020-04-01T14:00:31Z</time>
      </trkpt>
      <trkpt lat="43.55375" lon="1.46675">
        <ele>214.246</ele>
        <time>2020-04-01T14:00:36Z</time>
      </trkpt>
      <trkpt lat="43.55369" lon="1.46678">
        <ele>214.269</ele>
        <time>2020-04-01T14:00:42Z</time>
      </trkpt>
      <trkpt lat="43.55364" lon="1.46679">
        <ele>214.288</ele>
        <time>2020-04-01T14:00:47Z</time>
      </trkpt>
      <trkpt lat="43.55359" lon="1.46681">
        <ele>214.309</ele>
        <time>2020-04-01T14:00:52Z</time>
      </trkpt>
      <trkpt lat="43.55353" lon="1.46683">
        <ele>214.339</ele>
        <time>2020-04-01T14:00:58Z</time>
      </trkpt>
      <trkpt lat="43.55347" lon="1.46686">
        <ele>214.368</ele>
        <time>2020-04-01T14:01:03Z</time>
      </trkpt>
      <trkpt lat="43.55337" lon="1.46687">
        <ele>214.4</ele>
        <time>2020-04-01T14:01:09Z</time>
      </trkpt>
      <trkpt lat="43.55332" lon="1.46688">
        <ele>214.424</ele>
        <time>2020-04-01T14:01:14Z</time>
      </trkpt>
      <trkpt lat="43.55327" lon="1.46687">
        <ele>214.45</ele>
        <time>2020-04-01T14:01:19Z</time>
      </trkpt>
      <trkpt lat="43.55323" lon="1.46687">
        <ele>214.475</ele>
        <time>2020-04-01T14:01:24Z</time>
      </trkpt>
      <trkpt lat="43.5532" lon="1.46694">
        <ele>214.502</ele>
        <time>2020-04-01T14:01:30Z</time>
      </trkpt>
      <trkpt lat="43.55314" lon="1.46698">
        <ele>214.536</ele>
        <time>2020-04-01T14:01:36Z</time>
      </trkpt>
      <trkpt lat="43.55314" lon="1.46698">
        <ele>214.55</ele>
        <time>2020-04-01T14:01:42Z</time>
      </trkpt>
      <trkpt lat="43.55312" lon="1.46696">
        <ele>214.588</ele>
        <time>2020-04-01T14:01:47Z</time>
      </trkpt>
      <trkpt lat="43.5531" lon="1.46692">
        <ele>214.634</ele>
        <time>2020-04-01T14:01:52Z</time>
      </trkpt>
      <trkpt lat="43.55307" lon="1.46684">
        <ele>214.688</ele>
        <time>2020-04-01T14:01:58Z</time>
      </trkpt>
      <trkpt lat="43.55305" lon="1.46677">
        <ele>214.732</ele>
        <time>2020-04-01T14:02:03Z</time>
      </trkpt>
      <trkpt lat="43.55303" lon="1.46671">
        <ele>214.785</ele>
        <time>2020-04-01T14:02:09Z</time>
      </trkpt>
      <trkpt lat="43.553" lon="1.46665">
        <ele>214.837</ele>
        <time>2020-04-01T14:02:15Z</time>
      </trkpt>
      <trkpt lat="43.55297" lon="1.46658">
        <ele>214.89</ele>
        <time>2020-04-01T14:02:21Z</time>
      </trkpt>
      <trkpt lat="43.55295" lon="1.46651">
        <ele>214.937</ele>
        <time>2020-04-01T14:02:26Z</time>
      </trkpt>
      <trkpt lat="43.55292" lon="1.46646">
        <ele>214.993</ele>
        <time>2020-04-01T14:02:32Z</time>
      </trkpt>
      <trkpt lat="43.55285" lon="1.46643">
        <ele>215.041</ele>
        <time>2020-04-01T14:02:37Z</time>
      </trkpt>
      <trkpt lat="43.55281" lon="1.46636">
        <ele>215.1</ele>
        <time>2020-04-01T14:02:43Z</time>
      </trkpt>
      <trkpt lat="43.55278" lon="1.46631">
        <ele>215.16</ele>
        <time>2020-04-01T14:02:49Z</time>
      </trkpt>
      <trkpt lat="43.55276" lon="1.46623">
        <ele>215.21</ele>
        <time>2020-04-01T14:02:54Z</time>
      </trkpt>
      <trkpt lat="43.55277" lon="1.46614">
        <ele>215.273</ele>
        <time>2020-04-01T14:03:00Z</time>
      </trkpt>
      <trkpt lat="43.55274" lon="1.4661">
        <ele>215.327</ele>
        <time>2020-04-01T14:03:05Z</time>
      </trkpt>
      <trkpt lat="43.55274" lon="1.4661">
        <ele>215.334</ele>
        <time>2020-04-01T14:03:11Z</time>
      </trkpt>
      <trkpt lat="43.55273" lon="1.46609">
        <ele>215.362</ele>
        <time>2020-04-01T14:03:17Z</time>
      </trkpt>
      <trkpt lat="43.55272" lon="1.46606">
        <ele>215.405</ele>
        <time>2020-04-01T14:03:23Z</time>
      </trkpt>
      <trkpt lat="43.55271" lon="1.46602">
        <ele>215.422</ele>
        <time>2020-04-01T14:03:29Z</time>
      </trkpt>
      <trkpt lat="43.5527" lon="1.466">
        <ele>215.479</ele>
        <time>2020-04-01T14:03:35Z</time>
      </trkpt>
      <trkpt lat="43.55269" lon="1.46599">
        <ele>215.516</ele>
        <time>2020-04-01T14:03:41Z</time>
      </trkpt>
      <trkpt lat="43.55269" lon="1.46598">
        <ele>215.547</ele>
        <time>2020-04-01T14:03:46Z</time>
      </trkpt>
      <trkpt lat="43.55268" lon="1.46598">
        <ele>215.554</ele>
        <time>2020-04-01T14:03:51Z</time>
      </trkpt>
      <trkpt lat="43.55267" lon="1.46598">
        <ele>215.591</ele>
        <time>2020-04-01T14:03:57Z</time>
      </trkpt>
      <trkpt lat="43.55265" lon="1.46595">
        <ele>215.68</ele>
        <time>2020-04-01T14:04:03Z</time>
      </trkpt>
      <trkpt lat="43.55258" lon="1.46584">
        <ele>215.749</ele>
        <time>2020-04-01T14:04:08Z</time>
      </trkpt>
      <trkpt lat="43.55256" lon="1.4658">
        <ele>215.827</ele>
        <time>2020-04-01T14:04:14Z</time>
      </trkpt>
      <trkpt lat="43.55253" lon="1.46575">
        <ele>215.894</ele>
        <time>2020-04-01T14:04:20Z</time>
      </trkpt>
      <trkpt lat="43.55252" lon="1.46574">
        <ele>215.967</ele>
        <time>2020-04-01T14:04:26Z</time>
      </trkpt>
      <trkpt lat="43.55248" lon="1.46565">
        <ele>216.033</ele>
        <time>2020-04-01T14:04:32Z</time>
      </trkpt>
      <trkpt lat="43.55246" lon="1.46557">
        <ele>216.077</ele>
        <time>2020-04-01T14:04:37Z</time>
      </trkpt>
      <trkpt lat="43.55244" lon="1.46554">
        <ele>216.127</ele>
        <time>2020-04-01T14:04:42Z</time>
      </trkpt>
      <trkpt lat="43.5524" lon="1.46553">
        <ele>216.185</ele>
        <time>2020-04-01T14:04:48Z</time>
      </trkpt>
      <trkpt lat="43.55234" lon="1.46548">
        <ele>216.234</ele>
        <time>2020-04-01T14:04:53Z</time>
      </trkpt>
      <trkpt lat="43.5523" lon="1.46543">
        <ele>216.283</ele>
        <time>2020-04-01T14:04:58Z</time>
      </trkpt>
      <trkpt lat="43.55226" lon="1.46541">
        <ele>216.332</ele>
        <time>2020-04-01T14:05:03Z</time>
      </trkpt>
      <trkpt lat="43.5522" lon="1.46536">
        <ele>216.394</ele>
        <time>2020-04-01T14:05:09Z</time>
      </trkpt>
      <trkpt lat="43.55219" lon="1.46532">
        <ele>216.44</ele>
        <time>2020-04-01T14:05:14Z</time>
      </trkpt>
      <trkpt lat="43.55216" lon="1.46524">
        <ele>216.5</ele>
        <time>2020-04-01T14:05:19Z</time>
      </trkpt>
      <trkpt lat="43.55215" lon="1.46527">
        <ele>216.53</ele>
        <time>2020-04-01T14:05:25Z</time>
      </trkpt>
      <trkpt lat="43.55215" lon="1.46529">
        <ele>216.536</ele>
        <time>2020-04-01T14:05:30Z</time>
      </trkpt>
      <trkpt lat="43.55215" lon="1.46529">
        <ele>216.574</ele>
        <time>2020-04-01T14:05:36Z</time>
      </trkpt>
      <trkpt lat="43.55215" lon="1.46529">
        <ele>216.584</ele>
        <time>2020-04-01T14:05:42Z</time>
      </trkpt>
      <trkpt lat="43.55215" lon="1.46529">
        <ele>216.593</ele>
        <time>2020-04-01T14:05:47Z</time>
      </trkpt>
      <trkpt lat="43.55215" lon="1.46529">
        <ele>216.605</ele>
        <time>2020-04-01T14:05:52Z</time>
      </trkpt>
      <trkpt lat="43.55215" lon="1.46529">
        <ele>216.625</ele>
        <time>2020-04-01T14:05:58Z</time>
      </trkpt>
      <trkpt lat="43.55216" lon="1.46528">
        <ele>216.646</ele>
        <time>2020-04-01T14:06:03Z</time>
      </trkpt>
      <trkpt lat="43.55216" lon="1.46528">
        <ele>216.673</ele>
        <time>2020-04-01T14:06:09Z</time>
      </trkpt>
      <trkpt lat="43.55217" lon="1.46527">
        <ele>216.699</ele>
        <time>2020-04-01T14:06:15Z</time>
      </trkpt>
      <trkpt lat="43.55217" lon="1.46527">
        <ele>216.72</ele>
        <time>2020-04-01T14:06:20Z</time>
      </trkpt>
      <trkpt lat="43.55217" lon="1.46527">
        <ele>216.741</ele>
        <time>2020-04-01T14:06:25Z</time>
      </trkpt>
      <trkpt lat="43.55217" lon="1.46529">
        <ele>216.939</ele>
        <time>2020-04-01T14:06:31Z</time>
      </trkpt>
      <trkpt lat="43.55222" lon="1.46535">
        <ele>217.141</ele>
        <time>2020-04-01T14:06:37Z</time>
      </trkpt>
      <trkpt lat="43.55226" lon="1.46538">
        <ele>217.212</ele>
        <time>2020-04-01T14:06:43Z</time>
      </trkpt>
      <trkpt lat="43.55226" lon="1.46539">
        <ele>217.229</ele>
        <time>2020-04-01T14:06:49Z</time>
      </trkpt>
      <trkpt lat="43.55227" lon="1.4654">
        <ele>217.246</ele>
        <time>2020-04-01T14:06:54Z</time>
      </trkpt>
      <trkpt lat="43.55229" lon="1.46542">
        <ele>217.331</ele>
        <time>2020-04-01T14:06:59Z</time>
      </trkpt>
      <trkpt lat="43.55233" lon="1.46547">
        <ele>217.51</ele>
        <time>2020-04-01T14:07:04Z</time>
      </trkpt>
      <trkpt lat="43.55237" lon="1.46549">
        <ele>217.707</ele>
        <time>2020-04-01T14:07:10Z</time>
      </trkpt>
      <trkpt lat="43.55241" lon="1.46552">
        <ele>217.856</ele>
        <time>2020-04-01T14:07:15Z</time>
      </trkpt>
      <trkpt lat="43.55247" lon="1.46557">
        <ele>218.022</ele>
        <time>2020-04-01T14:07:21Z</time>
      </trkpt>
      <trkpt lat="43.55252" lon="1.46563">
        <ele>218.147</ele>
        <time>2020-04-01T14:07:26Z</time>
      </trkpt>
      <trkpt lat="43.55257" lon="1.46569">
        <ele>218.288</ele>
        <time>2020-04-01T14:07:32Z</time>
      </trkpt>
      <trkpt lat="43.5526" lon="1.46574">
        <ele>218.399</ele>
        <time>2020-04-01T14:07:37Z</time>
      </trkpt>
      <trkpt lat="43.55264" lon="1.46578">
        <ele>218.503</ele>
        <time>2020-04-01T14:07:42Z</time>
      </trkpt>
      <trkpt lat="43.55266" lon="1.46581">
        <ele>218.6</ele>
        <time>2020-04-01T14:07:47Z</time>
      </trkpt>
      <trkpt lat="43.55267" lon="1.46589">
        <ele>218.714</ele>
        <time>2020-04-01T14:07:53Z</time>
      </trkpt>
      <trkpt lat="43.5527" lon="1.46597">
        <ele>218.822</ele>
        <time>2020-04-01T14:07:59Z</time>
      </trkpt>
      <trkpt lat="43.55273" lon="1.46606">
        <ele>218.925</ele>
        <time>2020-04-01T14:08:05Z</time>
      </trkpt>
      <trkpt lat="43.55276" lon="1.46612">
        <ele>219.007</ele>
        <time>2020-04-01T14:08:10Z</time>
      </trkpt>
      <trkpt lat="43.55278" lon="1.46618">
        <ele>219.099</ele>
        <time>2020-04-01T14:08:16Z</time>
      </trkpt>
      <trkpt lat="43.55282" lon="1.46622">
        <ele>219.172</ele>
        <time>2020-04-01T14:08:21Z</time>
      </trkpt>
      <trkpt lat="43.55281" lon="1.46633">
        <ele>219.242</ele>
        <time>2020-04-01T14:08:26Z</time>
      </trkpt>
      <trkpt lat="43.55283" lon="1.46639">
        <ele>219.306</ele>
        <time>2020-04-01T14:08:31Z</time>
      </trkpt>
      <trkpt lat="43.55286" lon="1.46645">
        <ele>219.373</ele>
        <time>2020-04-01T14:08:37Z</time>
      </trkpt>
      <trkpt lat="43.55289" lon="1.46649">
        <ele>219.426</ele>
        <time>2020-04-01T14:08:42Z</time>
      </trkpt>
      <trkpt lat="43.55292" lon="1.46657">
        <ele>219.487</ele>
        <time>2020-04-01T14:08:48Z</time>
      </trkpt>
      <trkpt lat="43.55295" lon="1.46664">
        <ele>219.538</ele>
        <time>2020-04-01T14:08:53Z</time>
      </trkpt>
      <trkpt lat="43.55299" lon="1.46672">
        <ele>219.594</ele>
        <time>2020-04-01T14:08:59Z</time>
      </trkpt>
      <trkpt lat="43.55302" lon="1.4668">
        <ele>219.642</ele>
        <time>2020-04-01T14:09:05Z</time>
      </trkpt>
      <trkpt lat="43.55303" lon="1.46686">
        <ele>219.673</ele>
        <time>2020-04-01T14:09:10Z</time>
      </trkpt>
      <trkpt lat="43.55305" lon="1.46694">
        <ele>219.705</ele>
        <time>2020-04-01T14:09:16Z</time>
      </trkpt>
      <trkpt lat="43.55309" lon="1.46698">
        <ele>219.731</ele>
        <time>2020-04-01T14:09:21Z</time>
      </trkpt>
      <trkpt lat="43.55309" lon="1.46703">
        <ele>219.752</ele>
        <time>2020-04-01T14:09:26Z</time>
      </trkpt>
      <trkpt lat="43.55308" lon="1.46704">
        <ele>219.773</ele>
        <time>2020-04-01T14:09:31Z</time>
      </trkpt>
      <trkpt lat="43.55298" lon="1.46705">
        <ele>219.801</ele>
        <time>2020-04-01T14:09:37Z</time>
      </trkpt>
      <trkpt lat="43.55293" lon="1.46707">
        <ele>219.823</ele>
        <time>2020-04-01T14:09:42Z</time>
      </trkpt>
      <trkpt lat="43.55287" lon="1.46711">
        <ele>219.845</ele>
        <time>2020-04-01T14:09:48Z</time>
      </trkpt>
      <trkpt lat="43.55281" lon="1.46719">
        <ele>219.86</ele>
        <time>2020-04-01T14:09:53Z</time>
      </trkpt>
      <trkpt lat="43.55273" lon="1.46721">
        <ele>219.88</ele>
        <time>2020-04-01T14:09:59Z</time>
      </trkpt>
      <trkpt lat="43.55269" lon="1.46723">
        <ele>219.9</ele>
        <time>2020-04-01T14:10:04Z</time>
      </trkpt>
      <trkpt lat="43.55265" lon="1.46726">
        <ele>219.929</ele>
        <time>2020-04-01T14:10:10Z</time>
      </trkpt>
      <trkpt lat="43.55259" lon="1.4673">
        <ele>219.954</ele>
        <time>2020-04-01T14:10:15Z</time>
      </trkpt>
      <trkpt lat="43.55254" lon="1.46735">
        <ele>219.987</ele>
        <time>2020-04-01T14:10:21Z</time>
      </trkpt>
      <trkpt lat="43.55247" lon="1.46739">
        <ele>220.018</ele>
        <time>2020-04-01T14:10:27Z</time>
      </trkpt>
      <trkpt lat="43.55242" lon="1.46739">
        <ele>220.04</ele>
        <time>2020-04-01T14:10:33Z</time>
      </trkpt>
      <trkpt lat="43.55238" lon="1.46742">
        <ele>220.056</ele>
        <time>2020-04-01T14:10:38Z</time>
      </trkpt>
      <trkpt lat="43.55233" lon="1.46743">
        <ele>220.063</ele>
        <time>2020-04-01T14:10:44Z</time>
      </trkpt>
      <trkpt lat="43.55227" lon="1.46744">
        <ele>220.062</ele>
        <time>2020-04-01T14:10:50Z</time>
      </trkpt>
      <trkpt lat="43.55222" lon="1.46745">
        <ele>220.065</ele>
        <time>2020-04-01T14:10:56Z</time>
      </trkpt>
      <trkpt lat="43.55219" lon="1.46743">
        <ele>220.074</ele>
        <time>2020-04-01T14:11:01Z</time>
      </trkpt>
      <trkpt lat="43.55213" lon="1.46743">
        <ele>220.096</ele>
        <time>2020-04-01T14:11:07Z</time>
      </trkpt>
      <trkpt lat="43.55212" lon="1.46742">
        <ele>220.106</ele>
        <time>2020-04-01T14:11:12Z</time>
      </trkpt>
      <trkpt lat="43.55212" lon="1.46742">
        <ele>220.11</ele>
        <time>2020-04-01T14:11:18Z</time>
      </trkpt>
      <trkpt lat="43.5521" lon="1.46742">
        <ele>220.163</ele>
        <time>2020-04-01T14:11:24Z</time>
      </trkpt>
      <trkpt lat="43.55206" lon="1.46741">
        <ele>220.223</ele>
        <time>2020-04-01T14:11:30Z</time>
      </trkpt>
      <trkpt lat="43.55202" lon="1.46739">
        <ele>220.273</ele>
        <time>2020-04-01T14:11:35Z</time>
      </trkpt>
      <trkpt lat="43.55196" lon="1.46738">
        <ele>220.324</ele>
        <time>2020-04-01T14:11:40Z</time>
      </trkpt>
      <trkpt lat="43.55191" lon="1.46736">
        <ele>220.375</ele>
        <time>2020-04-01T14:11:45Z</time>
      </trkpt>
      <trkpt lat="43.55184" lon="1.46731">
        <ele>220.442</ele>
        <time>2020-04-01T14:11:51Z</time>
      </trkpt>
      <trkpt lat="43.55178" lon="1.46725">
        <ele>220.51</ele>
        <time>2020-04-01T14:11:57Z</time>
      </trkpt>
      <trkpt lat="43.55173" lon="1.4672">
        <ele>220.579</ele>
        <time>2020-04-01T14:12:03Z</time>
      </trkpt>
      <trkpt lat="43.55168" lon="1.46716">
        <ele>220.637</ele>
        <time>2020-04-01T14:12:08Z</time>
      </trkpt>
      <trkpt lat="43.55163" lon="1.46713">
        <ele>220.695</ele>
        <time>2020-04-01T14:12:13Z</time>
      </trkpt>
      <trkpt lat="43.55158" lon="1.46709">
        <ele>220.765</ele>
        <time>2020-04-01T14:12:19Z</time>
      </trkpt>
      <trkpt lat="43.55153" lon="1.46706">
        <ele>220.838</ele>
        <time>2020-04-01T14:12:25Z</time>
      </trkpt>
      <trkpt lat="43.55149" lon="1.46704">
        <ele>220.906</ele>
        <time>2020-04-01T14:12:30Z</time>
      </trkpt>
      <trkpt lat="43.55143" lon="1.46697">
        <ele>220.987</ele>
        <time>2020-04-01T14:12:36Z</time>
      </trkpt>
      <trkpt lat="43.55136" lon="1.46693">
        <ele>221.065</ele>
        <time>2020-04-01T14:12:42Z</time>
      </trkpt>
      <trkpt lat="43.55131" lon="1.46692">
        <ele>221.136</ele>
        <time>2020-04-01T14:12:48Z</time>
      </trkpt>
      <trkpt lat="43.55127" lon="1.46691">
        <ele>221.194</ele>
        <time>2020-04-01T14:12:53Z</time>
      </trkpt>
      <trkpt lat="43.5512" lon="1.46687">
        <ele>221.265</ele>
        <time>2020-04-01T14:12:59Z</time>
      </trkpt>
      <trkpt lat="43.55116" lon="1.46683">
        <ele>221.321</ele>
        <time>2020-04-01T14:13:04Z</time>
      </trkpt>
      <trkpt lat="43.55111" lon="1.46678">
        <ele>221.373</ele>
        <time>2020-04-01T14:13:09Z</time>
      </trkpt>
      <trkpt lat="43.55106" lon="1.46676">
        <ele>221.428</ele>
        <time>2020-04-01T14:13:14Z</time>
      </trkpt>
      <trkpt lat="43.55101" lon="1.46673">
        <ele>221.502</ele>
        <time>2020-04-01T14:13:20Z</time>
      </trkpt>
      <trkpt lat="43.55096" lon="1.46671">
        <ele>221.572</ele>
        <time>2020-04-01T14:13:25Z</time>
      </trkpt>
      <trkpt lat="43.5509" lon="1.46669">
        <ele>221.666</ele>
        <time>2020-04-01T14:13:31Z</time>
      </trkpt>
      <trkpt lat="43.55086" lon="1.46666">
        <ele>221.752</ele>
        <time>2020-04-01T14:13:36Z</time>
      </trkpt>
      <trkpt lat="43.55083" lon="1.46662">
        <ele>221.864</ele>
        <time>2020-04-01T14:13:42Z</time>
      </trkpt>
      <trkpt lat="43.55078" lon="1.46657">
        <ele>221.959</ele>
        <time>2020-04-01T14:13:47Z</time>
      </trkpt>
      <trkpt lat="43.55073" lon="1.46653">
        <ele>222.057</ele>
        <time>2020-04-01T14:13:52Z</time>
      </trkpt>
      <trkpt lat="43.55066" lon="1.46652">
        <ele>222.182</ele>
        <time>2020-04-01T14:13:58Z</time>
      </trkpt>
      <trkpt lat="43.55061" lon="1.4665">
        <ele>222.313</ele>
        <time>2020-04-01T14:14:04Z</time>
      </trkpt>
      <trkpt lat="43.55058" lon="1.46648">
        <ele>222.424</ele>
        <time>2020-04-01T14:14:09Z</time>
      </trkpt>
      <trkpt lat="43.55054" lon="1.46645">
        <ele>222.551</ele>
        <time>2020-04-01T14:14:15Z</time>
      </trkpt>
      <trkpt lat="43.5505" lon="1.46642">
        <ele>222.675</ele>
        <time>2020-04-01T14:14:21Z</time>
      </trkpt>
      <trkpt lat="43.55045" lon="1.46638">
        <ele>222.795</ele>
        <time>2020-04-01T14:14:27Z</time>
      </trkpt>
      <trkpt lat="43.55039" lon="1.46636">
        <ele>222.888</ele>
        <time>2020-04-01T14:14:32Z</time>
      </trkpt>
      <trkpt lat="43.55036" lon="1.46634">
        <ele>222.997</ele>
        <time>2020-04-01T14:14:38Z</time>
      </trkpt>
      <trkpt lat="43.55031" lon="1.46632">
        <ele>223.084</ele>
        <time>2020-04-01T14:14:43Z</time>
      </trkpt>
      <trkpt lat="43.55028" lon="1.46631">
        <ele>223.168</ele>
        <time>2020-04-01T14:14:48Z</time>
      </trkpt>
      <trkpt lat="43.55022" lon="1.46631">
        <ele>223.271</ele>
        <time>2020-04-01T14:14:54Z</time>
      </trkpt>
      <trkpt lat="43.55018" lon="1.46628">
        <ele>223.372</ele>
        <time>2020-04-01T14:15:00Z</time>
      </trkpt>
      <trkpt lat="43.55014" lon="1.46627">
        <ele>223.471</ele>
        <time>2020-04-01T14:15:06Z</time>
      </trkpt>
      <trkpt lat="43.55009" lon="1.46625">
        <ele>223.569</ele>
        <time>2020-04-01T14:15:12Z</time>
      </trkpt>
      <trkpt lat="43.55004" lon="1.46624">
        <ele>223.648</ele>
        <time>2020-04-01T14:15:17Z</time>
      </trkpt>
      <trkpt lat="43.54999" lon="1.46624">
        <ele>223.742</ele>
        <time>2020-04-01T14:15:23Z</time>
      </trkpt>
      <trkpt lat="43.54994" lon="1.46622">
        <ele>223.818</ele>
        <time>2020-04-01T14:15:28Z</time>
      </trkpt>
      <trkpt lat="43.5499" lon="1.4662">
        <ele>223.914</ele>
        <time>2020-04-01T14:15:34Z</time>
      </trkpt>
      <trkpt lat="43.54986" lon="1.46618">
        <ele>223.99</ele>
        <time>2020-04-01T14:15:39Z</time>
      </trkpt>
      <trkpt lat="43.54982" lon="1.46616">
        <ele>224.084</ele>
        <time>2020-04-01T14:15:45Z</time>
      </trkpt>
      <trkpt lat="43.54978" lon="1.46621">
        <ele>224.14</ele>
        <time>2020-04-01T14:15:50Z</time>
      </trkpt>
      <trkpt lat="43.54979" lon="1.46616">
        <ele>224.264</ele>
        <time>2020-04-01T14:15:56Z</time>
      </trkpt>
      <trkpt lat="43.54978" lon="1.46612">
        <ele>224.378</ele>
        <time>2020-04-01T14:16:01Z</time>
      </trkpt>
      <trkpt lat="43.54981" lon="1.46604">
        <ele>224.499</ele>
        <time>2020-04-01T14:16:07Z</time>
      </trkpt>
      <trkpt lat="43.54982" lon="1.46594">
        <ele>224.646</ele>
        <time>2020-04-01T14:16:13Z</time>
      </trkpt>
      <trkpt lat="43.54983" lon="1.46589">
        <ele>224.797</ele>
        <time>2020-04-01T14:16:19Z</time>
      </trkpt>
      <trkpt lat="43.54984" lon="1.46581">
        <ele>224.946</ele>
        <time>2020-04-01T14:16:25Z</time>
      </trkpt>
      <trkpt lat="43.54985" lon="1.46578">
        <ele>225.065</ele>
        <time>2020-04-01T14:16:30Z</time>
      </trkpt>
      <trkpt lat="43.54991" lon="1.46568">
        <ele>225.206</ele>
        <time>2020-04-01T14:16:36Z</time>
      </trkpt>
      <trkpt lat="43.54994" lon="1.46558">
        <ele>225.351</ele>
        <time>2020-04-01T14:16:42Z</time>
      </trkpt>
      <trkpt lat="43.54995" lon="1.46549">
        <ele>225.48</ele>
        <time>2020-04-01T14:16:47Z</time>
      </trkpt>
      <trkpt lat="43.54996" lon="1.46542">
        <ele>225.642</ele>
        <time>2020-04-01T14:16:53Z</time>
      </trkpt>
      <trkpt lat="43.54998" lon="1.46536">
        <ele>225.814</ele>
        <time>2020-04-01T14:16:59Z</time>
      </trkpt>
      <trkpt lat="43.54999" lon="1.46532">
        <ele>225.938</ele>
        <time>2020-04-01T14:17:04Z</time>
      </trkpt>
      <trkpt lat="43.55" lon="1.46532">
        <ele>226.016</ele>
        <time>2020-04-01T14:17:10Z</time>
      </trkpt>
      <trkpt lat="43.54998" lon="1.46532">
        <ele>226.173</ele>
        <time>2020-04-01T14:17:15Z</time>
      </trkpt>
      <trkpt lat="43.54996" lon="1.46535">
        <ele>226.351</ele>
        <time>2020-04-01T14:17:21Z</time>
      </trkpt>
      <trkpt lat="43.54996" lon="1.46541">
        <ele>226.526</ele>
        <time>2020-04-01T14:17:27Z</time>
      </trkpt>
      <trkpt lat="43.54993" lon="1.46545">
        <ele>226.668</ele>
        <time>2020-04-01T14:17:32Z</time>
      </trkpt>
      <trkpt lat="43.54991" lon="1.46553">
        <ele>226.835</ele>
        <time>2020-04-01T14:17:38Z</time>
      </trkpt>
      <trkpt lat="43.54991" lon="1.46561">
        <ele>226.969</ele>
        <time>2020-04-01T14:17:43Z</time>
      </trkpt>
      <trkpt lat="43.54988" lon="1.4657">
        <ele>227.097</ele>
        <time>2020-04-01T14:17:48Z</time>
      </trkpt>
      <trkpt lat="43.54986" lon="1.46577">
        <ele>227.246</ele>
        <time>2020-04-01T14:17:54Z</time>
      </trkpt>
      <trkpt lat="43.54982" lon="1.46586">
        <ele>227.396</ele>
        <time>2020-04-01T14:18:00Z</time>
      </trkpt>
      <trkpt lat="43.54981" lon="1.46592">
        <ele>227.516</ele>
        <time>2020-04-01T14:18:05Z</time>
      </trkpt>
      <trkpt lat="43.54978" lon="1.46598">
        <ele>227.633</ele>
        <time>2020-04-01T14:18:10Z</time>
      </trkpt>
      <trkpt lat="43.54976" lon="1.46603">
        <ele>227.748</ele>
        <time>2020-04-01T14:18:15Z</time>
      </trkpt>
      <trkpt lat="43.54972" lon="1.46609">
        <ele>227.884</ele>
        <time>2020-04-01T14:18:21Z</time>
      </trkpt>
      <trkpt lat="43.54969" lon="1.46614">
        <ele>227.999</ele>
        <time>2020-04-01T14:18:26Z</time>
      </trkpt>
      <trkpt lat="43.54964" lon="1.46614">
        <ele>228.108</ele>
        <time>2020-04-01T14:18:31Z</time>
      </trkpt>
      <trkpt lat="43.54958" lon="1.4661">
        <ele>228.238</ele>
        <time>2020-04-01T14:18:37Z</time>
      </trkpt>
      <trkpt lat="43.54953" lon="1.46607">
        <ele>228.36</ele>
        <time>2020-04-01T14:18:43Z</time>
      </trkpt>
      <trkpt lat="43.54948" lon="1.46607">
        <ele>228.461</ele>
        <time>2020-04-01T14:18:48Z</time>
      </trkpt>
      <trkpt lat="43.54942" lon="1.46605">
        <ele>228.582</ele>
        <time>2020-04-01T14:18:54Z</time>
      </trkpt>
      <trkpt lat="43.54937" lon="1.46604">
        <ele>228.681</ele>
        <time>2020-04-01T14:18:59Z</time>
      </trkpt>
      <trkpt lat="43.54935" lon="1.46605">
        <ele>228.746</ele>
        <time>2020-04-01T14:19:04Z</time>
      </trkpt>
      <trkpt lat="43.54934" lon="1.46605">
        <ele>228.782</ele>
        <time>2020-04-01T14:19:10Z</time>
      </trkpt>
      <trkpt lat="43.5493" lon="1.46605">
        <ele>228.898</ele>
        <time>2020-04-01T14:19:15Z</time>
      </trkpt>
      <trkpt lat="43.54928" lon="1.46605">
        <ele>229.007</ele>
        <time>2020-04-01T14:19:20Z</time>
      </trkpt>
      <trkpt lat="43.54923" lon="1.46605">
        <ele>229.129</ele>
        <time>2020-04-01T14:19:26Z</time>
      </trkpt>
      <trkpt lat="43.5492" lon="1.46606">
        <ele>229.226</ele>
        <time>2020-04-01T14:19:31Z</time>
      </trkpt>
      <trkpt lat="43.54914" lon="1.46603">
        <ele>229.338</ele>
        <time>2020-04-01T14:19:37Z</time>
      </trkpt>
      <trkpt lat="43.54908" lon="1.46601">
        <ele>229.432</ele>
        <time>2020-04-01T14:19:42Z</time>
      </trkpt>
      <trkpt lat="43.54904" lon="1.46602">
        <ele>229.548</ele>
        <time>2020-04-01T14:19:48Z</time>
      </trkpt>
      <trkpt lat="43.54899" lon="1.46601">
        <ele>229.643</ele>
        <time>2020-04-01T14:19:53Z</time>
      </trkpt>
      <trkpt lat="43.54892" lon="1.46602">
        <ele>229.747</ele>
        <time>2020-04-01T14:19:59Z</time>
      </trkpt>
      <trkpt lat="43.54885" lon="1.46605">
        <ele>229.839</ele>
        <time>2020-04-01T14:20:05Z</time>
      </trkpt>
      <trkpt lat="43.5488" lon="1.46605">
        <ele>229.929</ele>
        <time>2020-04-01T14:20:11Z</time>
      </trkpt>
      <trkpt lat="43.54874" lon="1.46606">
        <ele>230.019</ele>
        <time>2020-04-01T14:20:17Z</time>
      </trkpt>
      <trkpt lat="43.5487" lon="1.46605">
        <ele>230.095</ele>
        <time>2020-04-01T14:20:22Z</time>
      </trkpt>
      <trkpt lat="43.54868" lon="1.46604">
        <ele>230.198</ele>
        <time>2020-04-01T14:20:28Z</time>
      </trkpt>
      <trkpt lat="43.54863" lon="1.46605">
        <ele>230.291</ele>
        <time>2020-04-01T14:20:33Z</time>
      </trkpt>
      <trkpt lat="43.54856" lon="1.46606">
        <ele>230.405</ele>
        <time>2020-04-01T14:20:39Z</time>
      </trkpt>
      <trkpt lat="43.54851" lon="1.46611">
        <ele>230.519</ele>
        <time>2020-04-01T14:20:45Z</time>
      </trkpt>
      <trkpt lat="43.54846" lon="1.46611">
        <ele>230.615</ele>
        <time>2020-04-01T14:20:50Z</time>
      </trkpt>
      <trkpt lat="43.54843" lon="1.46611">
        <ele>230.714</ele>
        <time>2020-04-01T14:20:55Z</time>
      </trkpt>
      <trkpt lat="43.54838" lon="1.46611">
        <ele>230.815</ele>
        <time>2020-04-01T14:21:00Z</time>
      </trkpt>
      <trkpt lat="43.54831" lon="1.46612">
        <ele>230.935</ele>
        <time>2020-04-01T14:21:06Z</time>
      </trkpt>
      <trkpt lat="43.54827" lon="1.46613">
        <ele>231.037</ele>
        <time>2020-04-01T14:21:11Z</time>
      </trkpt>
      <trkpt lat="43.54824" lon="1.46613">
        <ele>231.158</ele>
        <time>2020-04-01T14:21:17Z</time>
      </trkpt>
      <trkpt lat="43.5482" lon="1.46614">
        <ele>231.26</ele>
        <time>2020-04-01T14:21:22Z</time>
      </trkpt>
      <trkpt lat="43.54814" lon="1.46614">
        <ele>231.386</ele>
        <time>2020-04-01T14:21:28Z</time>
      </trkpt>
      <trkpt lat="43.54812" lon="1.46615">
        <ele>231.494</ele>
        <time>2020-04-01T14:21:33Z</time>
      </trkpt>
      <trkpt lat="43.54808" lon="1.46616">
        <ele>231.602</ele>
        <time>2020-04-01T14:21:38Z</time>
      </trkpt>
      <trkpt lat="43.54802" lon="1.46622">
        <ele>231.749</ele>
        <time>2020-04-01T14:21:44Z</time>
      </trkpt>
      <trkpt lat="43.54799" lon="1.46626">
        <ele>231.91</ele>
        <time>2020-04-01T14:21:50Z</time>
      </trkpt>
      <trkpt lat="43.54797" lon="1.46634">
        <ele>232.089</ele>
        <time>2020-04-01T14:21:56Z</time>
      </trkpt>
      <trkpt lat="43.54796" lon="1.4664">
        <ele>232.24</ele>
        <time>2020-04-01T14:22:01Z</time>
      </trkpt>
      <trkpt lat="43.54796" lon="1.46647">
        <ele>232.418</ele>
        <time>2020-04-01T14:22:07Z</time>
      </trkpt>
      <trkpt lat="43.54798" lon="1.46654">
        <ele>232.578</ele>
        <time>2020-04-01T14:22:12Z</time>
      </trkpt>
      <trkpt lat="43.54802" lon="1.46663">
        <ele>232.777</ele>
        <time>2020-04-01T14:22:18Z</time>
      </trkpt>
      <trkpt lat="43.54803" lon="1.46668">
        <ele>232.945</ele>
        <time>2020-04-01T14:22:23Z</time>
      </trkpt>
      <trkpt lat="43.54806" lon="1.46675">
        <ele>233.172</ele>
        <time>2020-04-01T14:22:29Z</time>
      </trkpt>
      <trkpt lat="43.54807" lon="1.46683">
        <ele>233.372</ele>
        <time>2020-04-01T14:22:34Z</time>
      </trkpt>
      <trkpt lat="43.54808" lon="1.46691">
        <ele>233.616</ele>
        <time>2020-04-01T14:22:40Z</time>
      </trkpt>
      <trkpt lat="43.54809" lon="1.46698">
        <ele>233.883</ele>
        <time>2020-04-01T14:22:46Z</time>
      </trkpt>
      <trkpt lat="43.54812" lon="1.46706">
        <ele>234.132</ele>
        <time>2020-04-01T14:22:51Z</time>
      </trkpt>
      <trkpt lat="43.54815" lon="1.46711">
        <ele>234.396</ele>
        <time>2020-04-01T14:22:56Z</time>
      </trkpt>
      <trkpt lat="43.54815" lon="1.46714">
        <ele>234.705</ele>
        <time>2020-04-01T14:23:02Z</time>
      </trkpt>
      <trkpt lat="43.5481" lon="1.46716">
        <ele>234.981</ele>
        <time>2020-04-01T14:23:07Z</time>
      </trkpt>
      <trkpt lat="43.5481" lon="1.46717">
        <ele>235.018</ele>
        <time>2020-04-01T14:23:13Z</time>
      </trkpt>
      <trkpt lat="43.5481" lon="1.46717">
        <ele>235.06</ele>
        <time>2020-04-01T14:23:19Z</time>
      </trkpt>
      <trkpt lat="43.54808" lon="1.46721">
        <ele>235.369</ele>
        <time>2020-04-01T14:23:24Z</time>
      </trkpt>
      <trkpt lat="43.54808" lon="1.46721">
        <ele>235.408</ele>
        <time>2020-04-01T14:23:29Z</time>
      </trkpt>
      <trkpt lat="43.54808" lon="1.46721">
        <ele>235.456</ele>
        <time>2020-04-01T14:23:35Z</time>
      </trkpt>
      <trkpt lat="43.54808" lon="1.46722">
        <ele>235.507</ele>
        <time>2020-04-01T14:23:41Z</time>
      </trkpt>
      <trkpt lat="43.54808" lon="1.46722">
        <ele>235.552</ele>
        <time>2020-04-01T14:23:46Z</time>
      </trkpt>
      <trkpt lat="43.54808" lon="1.46722">
        <ele>235.609</ele>
        <time>2020-04-01T14:23:52Z</time>
      </trkpt>
      <trkpt lat="43.54808" lon="1.46721">
        <ele>235.659</ele>
        <time>2020-04-01T14:23:57Z</time>
      </trkpt>
      <trkpt lat="43.54809" lon="1.46721">
        <ele>235.712</ele>
        <time>2020-04-01T14:24:02Z</time>
      </trkpt>
      <trkpt lat="43.5481" lon="1.46719">
        <ele>235.988</ele>
        <time>2020-04-01T14:24:08Z</time>
      </trkpt>
      <trkpt lat="43.54807" lon="1.46718">
        <ele>236.363</ele>
        <time>2020-04-01T14:24:14Z</time>
      </trkpt>
      <trkpt lat="43.54807" lon="1.46719">
        <ele>236.535</ele>
        <time>2020-04-01T14:24:20Z</time>
      </trkpt>
      <trkpt lat="43.54808" lon="1.46723">
        <ele>236.911</ele>
        <time>2020-04-01T14:24:26Z</time>
      </trkpt>
      <trkpt lat="43.54808" lon="1.46725">
        <ele>236.984</ele>
        <time>2020-04-01T14:24:32Z</time>
      </trkpt>
      <trkpt lat="43.54808" lon="1.46725">
        <ele>237.047</ele>
        <time>2020-04-01T14:24:37Z</time>
      </trkpt>
      <trkpt lat="43.54808" lon="1.46725">
        <ele>237.111</ele>
        <time>2020-04-01T14:24:42Z</time>
      </trkpt>
      <trkpt lat="43.54808" lon="1.46726">
        <ele>237.421</ele>
        <time>2020-04-01T14:24:48Z</time>
      </trkpt>
      <trkpt lat="43.54808" lon="1.46726">
        <ele>237.496</ele>
        <time>2020-04-01T14:24:54Z</time>
      </trkpt>
      <trkpt lat="43.54808" lon="1.46725">
        <ele>237.684</ele>
        <time>2020-04-01T14:25:00Z</time>
      </trkpt>
      <trkpt lat="43.54806" lon="1.46727">
        <ele>237.752</ele>
        <time>2020-04-01T14:25:05Z</time>
      </trkpt>
      <trkpt lat="43.54806" lon="1.46727">
        <ele>237.825</ele>
        <time>2020-04-01T14:25:10Z</time>
      </trkpt>
      <trkpt lat="43.54806" lon="1.46727">
        <ele>237.915</ele>
        <time>2020-04-01T14:25:16Z</time>
      </trkpt>
      <trkpt lat="43.54806" lon="1.46726">
        <ele>238.146</ele>
        <time>2020-04-01T14:25:22Z</time>
      </trkpt>
      <trkpt lat="43.54806" lon="1.46725">
        <ele>238.221</ele>
        <time>2020-04-01T14:25:27Z</time>
      </trkpt>
      <trkpt lat="43.54808" lon="1.46722">
        <ele>238.297</ele>
        <time>2020-04-01T14:25:32Z</time>
      </trkpt>
      <trkpt lat="43.54809" lon="1.46722">
        <ele>238.389</ele>
        <time>2020-04-01T14:25:38Z</time>
      </trkpt>
      <trkpt lat="43.54809" lon="1.46723">
        <ele>238.484</ele>
        <time>2020-04-01T14:25:44Z</time>
      </trkpt>
      <trkpt lat="43.54809" lon="1.46723">
        <ele>238.564</ele>
        <time>2020-04-01T14:25:49Z</time>
      </trkpt>
      <trkpt lat="43.54809" lon="1.46724">
        <ele>238.663</ele>
        <time>2020-04-01T14:25:55Z</time>
      </trkpt>
      <trkpt lat="43.54809" lon="1.46725">
        <ele>238.915</ele>
        <time>2020-04-01T14:26:01Z</time>
      </trkpt>
      <trkpt lat="43.54809" lon="1.46725">
        <ele>238.997</ele>
        <time>2020-04-01T14:26:06Z</time>
      </trkpt>
      <trkpt lat="43.54811" lon="1.46725">
        <ele>239.519</ele>
        <time>2020-04-01T14:26:11Z</time>
      </trkpt>
      <trkpt lat="43.54809" lon="1.46726">
        <ele>240.42</ele>
        <time>2020-04-01T14:26:17Z</time>
      </trkpt>
      <trkpt lat="43.54805" lon="1.46732">
        <ele>240.996</ele>
        <time>2020-04-01T14:26:23Z</time>
      </trkpt>
      <trkpt lat="43.54804" lon="1.46733">
        <ele>241.061</ele>
        <time>2020-04-01T14:26:28Z</time>
      </trkpt>
      <trkpt lat="43.54804" lon="1.46734">
        <ele>241.14</ele>
        <time>2020-04-01T14:26:34Z</time>
      </trkpt>
      <trkpt lat="43.54804" lon="1.46734">
        <ele>241.218</ele>
        <time>2020-04-01T14:26:40Z</time>
      </trkpt>
      <trkpt lat="43.54801" lon="1.46737">
        <ele>241.854</ele>
        <time>2020-04-01T14:26:46Z</time>
      </trkpt>
      <trkpt lat="43.54798" lon="1.46741">
        <ele>242.533</ele>
        <time>2020-04-01T14:26:52Z</time>
      </trkpt>
      <trkpt lat="43.54796" lon="1.46745">
        <ele>243.049</ele>
        <time>2020-04-01T14:26:57Z</time>
      </trkpt>
      <trkpt lat="43.54795" lon="1.46752">
        <ele>243.613</ele>
        <time>2020-04-01T14:27:03Z</time>
      </trkpt>
      <trkpt lat="43.54792" lon="1.46759">
        <ele>244.124</ele>
        <time>2020-04-01T14:27:09Z</time>
      </trkpt>
      <trkpt lat="43.54789" lon="1.46765">
        <ele>244.514</ele>
        <time>2020-04-01T14:27:14Z</time>
      </trkpt>
      <trkpt lat="43.54791" lon="1.46773">
        <ele>244.946</ele>
        <time>2020-04-01T14:27:20Z</time>
      </trkpt>
      <trkpt lat="43.54792" lon="1.46781">
        <ele>245.285</ele>
        <time>2020-04-01T14:27:25Z</time>
      </trkpt>
      <trkpt lat="43.5479" lon="1.46783">
        <ele>245.657</ele>
        <time>2020-04-01T14:27:31Z</time>
      </trkpt>
      <trkpt lat="43.54786" lon="1.46787">
        <ele>245.936</ele>
        <time>2020-04-01T14:27:36Z</time>
      </trkpt>
      <trkpt lat="43.54781" lon="1.46793">
        <ele>246.236</ele>
        <time>2020-04-01T14:27:42Z</time>
      </trkpt>
      <trkpt lat="43.54776" lon="1.46799">
        <ele>246.505</ele>
        <time>2020-04-01T14:27:48Z</time>
      </trkpt>
      <trkpt lat="43.54774" lon="1.46803">
        <ele>246.744</ele>
        <time>2020-04-01T14:27:54Z</time>
      </trkpt>
      <trkpt lat="43.5477" lon="1.46804">
        <ele>246.925</ele>
        <time>2020-04-01T14:27:59Z</time>
      </trkpt>
      <trkpt lat="43.54764" lon="1.46807">
        <ele>247.118</ele>
        <time>2020-04-01T14:28:05Z</time>
      </trkpt>
      <trkpt lat="43.5476" lon="1.46811">
        <ele>247.264</ele>
        <time>2020-04-01T14:28:10Z</time>
      </trkpt>
      <trkpt lat="43.54756" lon="1.46815">
        <ele>247.422</ele>
        <time>2020-04-01T14:28:16Z</time>
      </trkpt>
      <trkpt lat="43.5475" lon="1.4682">
        <ele>247.544</ele>
        <time>2020-04-01T14:28:21Z</time>
      </trkpt>
      <trkpt lat="43.54746" lon="1.46826">
        <ele>247.68</ele>
        <time>2020-04-01T14:28:27Z</time>
      </trkpt>
      <trkpt lat="43.54742" lon="1.46831">
        <ele>247.79</ele>
        <time>2020-04-01T14:28:32Z</time>
      </trkpt>
      <trkpt lat="43.54739" lon="1.46836">
        <ele>247.917</ele>
        <time>2020-04-01T14:28:38Z</time>
      </trkpt>
      <trkpt lat="43.54734" lon="1.46843">
        <ele>248.033</ele>
        <time>2020-04-01T14:28:44Z</time>
      </trkpt>
      <trkpt lat="43.54729" lon="1.46852">
        <ele>248.135</ele>
        <time>2020-04-01T14:28:50Z</time>
      </trkpt>
      <trkpt lat="43.54723" lon="1.46861">
        <ele>248.231</ele>
        <time>2020-04-01T14:28:56Z</time>
      </trkpt>
      <trkpt lat="43.5472" lon="1.46868">
        <ele>248.318</ele>
        <time>2020-04-01T14:29:02Z</time>
      </trkpt>
      <trkpt lat="43.54716" lon="1.46875">
        <ele>248.4</ele>
        <time>2020-04-01T14:29:08Z</time>
      </trkpt>
      <trkpt lat="43.54712" lon="1.46882">
        <ele>248.464</ele>
        <time>2020-04-01T14:29:13Z</time>
      </trkpt>
      <trkpt lat="43.54709" lon="1.46888">
        <ele>248.536</ele>
        <time>2020-04-01T14:29:19Z</time>
      </trkpt>
      <trkpt lat="43.54705" lon="1.46894">
        <ele>248.606</ele>
        <time>2020-04-01T14:29:25Z</time>
      </trkpt>
      <trkpt lat="43.547" lon="1.46899">
        <ele>248.676</ele>
        <time>2020-04-01T14:29:31Z</time>
      </trkpt>
      <trkpt lat="43.54696" lon="1.46905">
        <ele>248.744</ele>
        <time>2020-04-01T14:29:37Z</time>
      </trkpt>
      <trkpt lat="43.54695" lon="1.46911">
        <ele>248.799</ele>
        <time>2020-04-01T14:29:42Z</time>
      </trkpt>
      <trkpt lat="43.54697" lon="1.46921">
        <ele>248.862</ele>
        <time>2020-04-01T14:29:48Z</time>
      </trkpt>
      <trkpt lat="43.547" lon="1.46928">
        <ele>248.933</ele>
        <time>2020-04-01T14:29:54Z</time>
      </trkpt>
      <trkpt lat="43.54707" lon="1.46925">
        <ele>249.005</ele>
        <time>2020-04-01T14:30:00Z</time>
      </trkpt>
      <trkpt lat="43.54712" lon="1.46922">
        <ele>249.064</ele>
        <time>2020-04-01T14:30:05Z</time>
      </trkpt>
      <trkpt lat="43.54717" lon="1.46921">
        <ele>249.135</ele>
        <time>2020-04-01T14:30:10Z</time>
      </trkpt>
      <trkpt lat="43.54723" lon="1.4692">
        <ele>249.21</ele>
        <time>2020-04-01T14:30:15Z</time>
      </trkpt>
      <trkpt lat="43.54729" lon="1.46919">
        <ele>249.304</ele>
        <time>2020-04-01T14:30:21Z</time>
      </trkpt>
      <trkpt lat="43.54734" lon="1.46916">
        <ele>249.382</ele>
        <time>2020-04-01T14:30:26Z</time>
      </trkpt>
      <trkpt lat="43.54737" lon="1.46916">
        <ele>249.448</ele>
        <time>2020-04-01T14:30:31Z</time>
      </trkpt>
      <trkpt lat="43.54739" lon="1.46916">
        <ele>249.539</ele>
        <time>2020-04-01T14:30:37Z</time>
      </trkpt>
      <trkpt lat="43.54741" lon="1.46916">
        <ele>249.596</ele>
        <time>2020-04-01T14:30:42Z</time>
      </trkpt>
      <trkpt lat="43.54741" lon="1.46917">
        <ele>249.638</ele>
        <time>2020-04-01T14:30:47Z</time>
      </trkpt>
      <trkpt lat="43.54741" lon="1.46917">
        <ele>249.645</ele>
        <time>2020-04-01T14:30:53Z</time>
      </trkpt>
      <trkpt lat="43.54741" lon="1.46916">
        <ele>249.651</ele>
        <time>2020-04-01T14:30:59Z</time>
      </trkpt>
      <trkpt lat="43.5474" lon="1.46917">
        <ele>249.656</ele>
        <time>2020-04-01T14:31:05Z</time>
      </trkpt>
      <trkpt lat="43.5474" lon="1.46917">
        <ele>249.66</ele>
        <time>2020-04-01T14:31:11Z</time>
      </trkpt>
      <trkpt lat="43.54739" lon="1.46917">
        <ele>249.663</ele>
        <time>2020-04-01T14:31:17Z</time>
      </trkpt>
      <trkpt lat="43.54739" lon="1.46917">
        <ele>249.665</ele>
        <time>2020-04-01T14:31:23Z</time>
      </trkpt>
      <trkpt lat="43.54739" lon="1.46917">
        <ele>249.667</ele>
        <time>2020-04-01T14:31:29Z</time>
      </trkpt>
      <trkpt lat="43.5474" lon="1.46917">
        <ele>249.671</ele>
        <time>2020-04-01T14:31:34Z</time>
      </trkpt>
      <trkpt lat="43.54744" lon="1.46916">
        <ele>249.655</ele>
        <time>2020-04-01T14:31:39Z</time>
      </trkpt>
      <trkpt lat="43.54751" lon="1.46914">
        <ele>249.624</ele>
        <time>2020-04-01T14:31:44Z</time>
      </trkpt>
      <trkpt lat="43.54758" lon="1.46911">
        <ele>249.578</ele>
        <time>2020-04-01T14:31:50Z</time>
      </trkpt>
      <trkpt lat="43.54762" lon="1.46909">
        <ele>249.529</ele>
        <time>2020-04-01T14:31:56Z</time>
      </trkpt>
      <trkpt lat="43.54768" lon="1.46907">
        <ele>249.487</ele>
        <time>2020-04-01T14:32:01Z</time>
      </trkpt>
      <trkpt lat="43.54774" lon="1.46908">
        <ele>249.447</ele>
        <time>2020-04-01T14:32:06Z</time>
      </trkpt>
      <trkpt lat="43.54779" lon="1.46911">
        <ele>249.406</ele>
        <time>2020-04-01T14:32:11Z</time>
      </trkpt>
      <trkpt lat="43.54783" lon="1.46915">
        <ele>249.356</ele>
        <time>2020-04-01T14:32:17Z</time>
      </trkpt>
      <trkpt lat="43.54788" lon="1.46916">
        <ele>249.31</ele>
        <time>2020-04-01T14:32:22Z</time>
      </trkpt>
      <trkpt lat="43.54795" lon="1.46916">
        <ele>249.251</ele>
        <time>2020-04-01T14:32:28Z</time>
      </trkpt>
      <trkpt lat="43.54802" lon="1.46919">
        <ele>249.188</ele>
        <time>2020-04-01T14:32:34Z</time>
      </trkpt>
      <trkpt lat="43.54804" lon="1.46921">
        <ele>249.125</ele>
        <time>2020-04-01T14:32:40Z</time>
      </trkpt>
      <trkpt lat="43.54805" lon="1.46924">
        <ele>249.069</ele>
        <time>2020-04-01T14:32:45Z</time>
      </trkpt>
      <trkpt lat="43.54808" lon="1.46926">
        <ele>248.999</ele>
        <time>2020-04-01T14:32:51Z</time>
      </trkpt>
      <trkpt lat="43.5481" lon="1.46929">
        <ele>248.941</ele>
        <time>2020-04-01T14:32:56Z</time>
      </trkpt>
      <trkpt lat="43.54812" lon="1.46937">
        <ele>248.87</ele>
        <time>2020-04-01T14:33:02Z</time>
      </trkpt>
      <trkpt lat="43.54815" lon="1.46945">
        <ele>248.797</ele>
        <time>2020-04-01T14:33:08Z</time>
      </trkpt>
      <trkpt lat="43.54818" lon="1.46951">
        <ele>248.737</ele>
        <time>2020-04-01T14:33:13Z</time>
      </trkpt>
      <trkpt lat="43.54822" lon="1.46957">
        <ele>248.666</ele>
        <time>2020-04-01T14:33:19Z</time>
      </trkpt>
      <trkpt lat="43.54825" lon="1.46963">
        <ele>248.595</ele>
        <time>2020-04-01T14:33:25Z</time>
      </trkpt>
      <trkpt lat="43.54827" lon="1.46968">
        <ele>248.522</ele>
        <time>2020-04-01T14:33:31Z</time>
      </trkpt>
      <trkpt lat="43.5483" lon="1.46973">
        <ele>248.446</ele>
        <time>2020-04-01T14:33:37Z</time>
      </trkpt>
      <trkpt lat="43.54833" lon="1.46976">
        <ele>248.38</ele>
        <time>2020-04-01T14:33:42Z</time>
      </trkpt>
      <trkpt lat="43.54836" lon="1.46982">
        <ele>248.301</ele>
        <time>2020-04-01T14:33:48Z</time>
      </trkpt>
      <trkpt lat="43.54834" lon="1.46988">
        <ele>248.222</ele>
        <time>2020-04-01T14:33:54Z</time>
      </trkpt>
      <trkpt lat="43.54835" lon="1.46993">
        <ele>248.144</ele>
        <time>2020-04-01T14:34:00Z</time>
      </trkpt>
      <trkpt lat="43.54836" lon="1.46997">
        <ele>248.076</ele>
        <time>2020-04-01T14:34:05Z</time>
      </trkpt>
      <trkpt lat="43.54838" lon="1.47003">
        <ele>248.009</ele>
        <time>2020-04-01T14:34:10Z</time>
      </trkpt>
      <trkpt lat="43.54838" lon="1.47011">
        <ele>247.924</ele>
        <time>2020-04-01T14:34:16Z</time>
      </trkpt>
      <trkpt lat="43.54836" lon="1.47018">
        <ele>247.83</ele>
        <time>2020-04-01T14:34:22Z</time>
      </trkpt>
      <trkpt lat="43.54833" lon="1.47026">
        <ele>247.732</ele>
        <time>2020-04-01T14:34:28Z</time>
      </trkpt>
      <trkpt lat="43.54834" lon="1.47033">
        <ele>247.637</ele>
        <time>2020-04-01T14:34:34Z</time>
      </trkpt>
      <trkpt lat="43.54834" lon="1.47039">
        <ele>247.545</ele>
        <time>2020-04-01T14:34:40Z</time>
      </trkpt>
      <trkpt lat="43.54831" lon="1.47046">
        <ele>247.442</ele>
        <time>2020-04-01T14:34:46Z</time>
      </trkpt>
      <trkpt lat="43.54829" lon="1.47058">
        <ele>247.328</ele>
        <time>2020-04-01T14:34:52Z</time>
      </trkpt>
      <trkpt lat="43.54828" lon="1.47066">
        <ele>247.206</ele>
        <time>2020-04-01T14:34:58Z</time>
      </trkpt>
      <trkpt lat="43.54824" lon="1.47075">
        <ele>247.08</ele>
        <time>2020-04-01T14:35:04Z</time>
      </trkpt>
      <trkpt lat="43.5482" lon="1.47085">
        <ele>246.953</ele>
        <time>2020-04-01T14:35:10Z</time>
      </trkpt>
      <trkpt lat="43.54817" lon="1.47093">
        <ele>246.825</ele>
        <time>2020-04-01T14:35:16Z</time>
      </trkpt>
      <trkpt lat="43.54813" lon="1.47102">
        <ele>246.704</ele>
        <time>2020-04-01T14:35:22Z</time>
      </trkpt>
      <trkpt lat="43.54812" lon="1.4711">
        <ele>246.589</ele>
        <time>2020-04-01T14:35:28Z</time>
      </trkpt>
      <trkpt lat="43.54811" lon="1.47119">
        <ele>246.474</ele>
        <time>2020-04-01T14:35:34Z</time>
      </trkpt>
      <trkpt lat="43.5481" lon="1.47126">
        <ele>246.376</ele>
        <time>2020-04-01T14:35:39Z</time>
      </trkpt>
      <trkpt lat="43.54809" lon="1.47135">
        <ele>246.277</ele>
        <time>2020-04-01T14:35:44Z</time>
      </trkpt>
      <trkpt lat="43.54809" lon="1.47145">
        <ele>246.156</ele>
        <time>2020-04-01T14:35:50Z</time>
      </trkpt>
      <trkpt lat="43.54812" lon="1.47152">
        <ele>246.032</ele>
        <time>2020-04-01T14:35:56Z</time>
      </trkpt>
      <trkpt lat="43.54818" lon="1.47158">
        <ele>245.895</ele>
        <time>2020-04-01T14:36:02Z</time>
      </trkpt>
      <trkpt lat="43.5482" lon="1.47163">
        <ele>245.767</ele>
        <time>2020-04-01T14:36:07Z</time>
      </trkpt>
      <trkpt lat="43.54824" lon="1.47168">
        <ele>245.625</ele>
        <time>2020-04-01T14:36:12Z</time>
      </trkpt>
      <trkpt lat="43.54827" lon="1.47174">
        <ele>245.469</ele>
        <time>2020-04-01T14:36:17Z</time>
      </trkpt>
      <trkpt lat="43.5483" lon="1.4718">
        <ele>245.264</ele>
        <time>2020-04-01T14:36:23Z</time>
      </trkpt>
      <trkpt lat="43.54835" lon="1.47183">
        <ele>245.041</ele>
        <time>2020-04-01T14:36:29Z</time>
      </trkpt>
      <trkpt lat="43.54838" lon="1.47181">
        <ele>244.838</ele>
        <time>2020-04-01T14:36:34Z</time>
      </trkpt>
      <trkpt lat="43.54849" lon="1.47174">
        <ele>244.569</ele>
        <time>2020-04-01T14:36:40Z</time>
      </trkpt>
      <trkpt lat="43.54852" lon="1.47171">
        <ele>244.337</ele>
        <time>2020-04-01T14:36:45Z</time>
      </trkpt>
      <trkpt lat="43.54856" lon="1.4717">
        <ele>244.145</ele>
        <time>2020-04-01T14:36:51Z</time>
      </trkpt>
      <trkpt lat="43.54861" lon="1.47164">
        <ele>243.889</ele>
        <time>2020-04-01T14:36:57Z</time>
      </trkpt>
      <trkpt lat="43.54863" lon="1.47159">
        <ele>243.649</ele>
        <time>2020-04-01T14:37:03Z</time>
      </trkpt>
      <trkpt lat="43.54871" lon="1.4716">
        <ele>243.416</ele>
        <time>2020-04-01T14:37:09Z</time>
      </trkpt>
      <trkpt lat="43.54885" lon="1.47154">
        <ele>243.181</ele>
        <time>2020-04-01T14:37:15Z</time>
      </trkpt>
      <trkpt lat="43.5489" lon="1.47149">
        <ele>242.986</ele>
        <time>2020-04-01T14:37:20Z</time>
      </trkpt>
      <trkpt lat="43.54894" lon="1.47147">
        <ele>242.759</ele>
        <time>2020-04-01T14:37:26Z</time>
      </trkpt>
      <trkpt lat="43.54898" lon="1.47142">
        <ele>242.578</ele>
        <time>2020-04-01T14:37:31Z</time>
      </trkpt>
      <trkpt lat="43.54904" lon="1.47135">
        <ele>242.364</ele>
        <time>2020-04-01T14:37:37Z</time>
      </trkpt>
      <trkpt lat="43.54909" lon="1.47132">
        <ele>242.188</ele>
        <time>2020-04-01T14:37:42Z</time>
      </trkpt>
      <trkpt lat="43.54915" lon="1.47126">
        <ele>241.977</ele>
        <time>2020-04-01T14:37:48Z</time>
      </trkpt>
      <trkpt lat="43.54919" lon="1.47125">
        <ele>241.769</ele>
        <time>2020-04-01T14:37:54Z</time>
      </trkpt>
      <trkpt lat="43.54922" lon="1.47122">
        <ele>241.573</ele>
        <time>2020-04-01T14:38:00Z</time>
      </trkpt>
      <trkpt lat="43.54923" lon="1.47123">
        <ele>241.419</ele>
        <time>2020-04-01T14:38:05Z</time>
      </trkpt>
      <trkpt lat="43.54925" lon="1.47122">
        <ele>241.291</ele>
        <time>2020-04-01T14:38:11Z</time>
      </trkpt>
      <trkpt lat="43.54938" lon="1.47116">
        <ele>241.138</ele>
        <time>2020-04-01T14:38:17Z</time>
      </trkpt>
      <trkpt lat="43.54943" lon="1.47116">
        <ele>240.993</ele>
        <time>2020-04-01T14:38:22Z</time>
      </trkpt>
      <trkpt lat="43.54946" lon="1.47121">
        <ele>240.817</ele>
        <time>2020-04-01T14:38:28Z</time>
      </trkpt>
      <trkpt lat="43.54952" lon="1.47119">
        <ele>240.624</ele>
        <time>2020-04-01T14:38:34Z</time>
      </trkpt>
      <trkpt lat="43.5496" lon="1.47114">
        <ele>240.404</ele>
        <time>2020-04-01T14:38:40Z</time>
      </trkpt>
      <trkpt lat="43.54967" lon="1.47109">
        <ele>240.172</ele>
        <time>2020-04-01T14:38:46Z</time>
      </trkpt>
      <trkpt lat="43.54972" lon="1.47105">
        <ele>239.981</ele>
        <time>2020-04-01T14:38:51Z</time>
      </trkpt>
      <trkpt lat="43.54976" lon="1.471">
        <ele>239.795</ele>
        <time>2020-04-01T14:38:56Z</time>
      </trkpt>
      <trkpt lat="43.54982" lon="1.47095">
        <ele>239.616</ele>
        <time>2020-04-01T14:39:01Z</time>
      </trkpt>
      <trkpt lat="43.54987" lon="1.47088">
        <ele>239.413</ele>
        <time>2020-04-01T14:39:07Z</time>
      </trkpt>
      <trkpt lat="43.54991" lon="1.47085">
        <ele>239.252</ele>
        <time>2020-04-01T14:39:12Z</time>
      </trkpt>
      <trkpt lat="43.54997" lon="1.47084">
        <ele>239.066</ele>
        <time>2020-04-01T14:39:18Z</time>
      </trkpt>
      <trkpt lat="43.55002" lon="1.47086">
        <ele>238.912</ele>
        <time>2020-04-01T14:39:23Z</time>
      </trkpt>
      <trkpt lat="43.55006" lon="1.47095">
        <ele>238.719</ele>
        <time>2020-04-01T14:39:29Z</time>
      </trkpt>
      <trkpt lat="43.55009" lon="1.47103">
        <ele>238.57</ele>
        <time>2020-04-01T14:39:34Z</time>
      </trkpt>
      <trkpt lat="43.5501" lon="1.47108">
        <ele>238.397</ele>
        <time>2020-04-01T14:39:40Z</time>
      </trkpt>
      <trkpt lat="43.55012" lon="1.47115">
        <ele>238.219</ele>
        <time>2020-04-01T14:39:46Z</time>
      </trkpt>
      <trkpt lat="43.55015" lon="1.47124">
        <ele>238.07</ele>
        <time>2020-04-01T14:39:51Z</time>
      </trkpt>
      <trkpt lat="43.55018" lon="1.47133">
        <ele>237.891</ele>
        <time>2020-04-01T14:39:57Z</time>
      </trkpt>
      <trkpt lat="43.55021" lon="1.47142">
        <ele>237.708</ele>
        <time>2020-04-01T14:40:03Z</time>
      </trkpt>
      <trkpt lat="43.55023" lon="1.4715">
        <ele>237.528</ele>
        <time>2020-04-01T14:40:09Z</time>
      </trkpt>
      <trkpt lat="43.55026" lon="1.47159">
        <ele>237.353</ele>
        <time>2020-04-01T14:40:15Z</time>
      </trkpt>
      <trkpt lat="43.55028" lon="1.47165">
        <ele>237.214</ele>
        <time>2020-04-01T14:40:20Z</time>
      </trkpt>
      <trkpt lat="43.55031" lon="1.47172">
        <ele>237.06</ele>
        <time>2020-04-01T14:40:26Z</time>
      </trkpt>
      <trkpt lat="43.55035" lon="1.4718">
        <ele>236.918</ele>
        <time>2020-04-01T14:40:32Z</time>
      </trkpt>
      <trkpt lat="43.55037" lon="1.47189">
        <ele>236.787</ele>
        <time>2020-04-01T14:40:38Z</time>
      </trkpt>
      <trkpt lat="43.55039" lon="1.47194">
        <ele>236.683</ele>
        <time>2020-04-01T14:40:43Z</time>
      </trkpt>
      <trkpt lat="43.5504" lon="1.47199">
        <ele>236.546</ele>
        <time>2020-04-01T14:40:49Z</time>
      </trkpt>
      <trkpt lat="43.55045" lon="1.47204">
        <ele>236.397</ele>
        <time>2020-04-01T14:40:55Z</time>
      </trkpt>
      <trkpt lat="43.55051" lon="1.47208">
        <ele>236.231</ele>
        <time>2020-04-01T14:41:01Z</time>
      </trkpt>
      <trkpt lat="43.55057" lon="1.47211">
        <ele>236.083</ele>
        <time>2020-04-01T14:41:06Z</time>
      </trkpt>
      <trkpt lat="43.55064" lon="1.47214">
        <ele>235.891</ele>
        <time>2020-04-01T14:41:12Z</time>
      </trkpt>
      <trkpt lat="43.55072" lon="1.47217">
        <ele>235.681</ele>
        <time>2020-04-01T14:41:18Z</time>
      </trkpt>
      <trkpt lat="43.55078" lon="1.47221">
        <ele>235.492</ele>
        <time>2020-04-01T14:41:23Z</time>
      </trkpt>
      <trkpt lat="43.55086" lon="1.47225">
        <ele>235.271</ele>
        <time>2020-04-01T14:41:29Z</time>
      </trkpt>
      <trkpt lat="43.55088" lon="1.47226">
        <ele>235.079</ele>
        <time>2020-04-01T14:41:34Z</time>
      </trkpt>
      <trkpt lat="43.55091" lon="1.4723">
        <ele>234.838</ele>
        <time>2020-04-01T14:41:40Z</time>
      </trkpt>
      <trkpt lat="43.55094" lon="1.47241">
        <ele>234.601</ele>
        <time>2020-04-01T14:41:46Z</time>
      </trkpt>
      <trkpt lat="43.55096" lon="1.47249">
        <ele>234.409</ele>
        <time>2020-04-01T14:41:51Z</time>
      </trkpt>
      <trkpt lat="43.55098" lon="1.47256">
        <ele>234.222</ele>
        <time>2020-04-01T14:41:56Z</time>
      </trkpt>
      <trkpt lat="43.55099" lon="1.47262">
        <ele>234.038</ele>
        <time>2020-04-01T14:42:01Z</time>
      </trkpt>
      <trkpt lat="43.55101" lon="1.4727">
        <ele>233.82</ele>
        <time>2020-04-01T14:42:07Z</time>
      </trkpt>
      <trkpt lat="43.55105" lon="1.47278">
        <ele>233.606</ele>
        <time>2020-04-01T14:42:13Z</time>
      </trkpt>
      <trkpt lat="43.55111" lon="1.47285">
        <ele>233.397</ele>
        <time>2020-04-01T14:42:19Z</time>
      </trkpt>
      <trkpt lat="43.55116" lon="1.47292">
        <ele>233.195</ele>
        <time>2020-04-01T14:42:25Z</time>
      </trkpt>
      <trkpt lat="43.5512" lon="1.47299">
        <ele>233</ele>
        <time>2020-04-01T14:42:31Z</time>
      </trkpt>
      <trkpt lat="43.55121" lon="1.47305">
        <ele>232.808</ele>
        <time>2020-04-01T14:42:37Z</time>
      </trkpt>
      <trkpt lat="43.55121" lon="1.47311">
        <ele>232.648</ele>
        <time>2020-04-01T14:42:42Z</time>
      </trkpt>
      <trkpt lat="43.55125" lon="1.47317">
        <ele>232.492</ele>
        <time>2020-04-01T14:42:47Z</time>
      </trkpt>
      <trkpt lat="43.55128" lon="1.47323">
        <ele>232.314</ele>
        <time>2020-04-01T14:42:53Z</time>
      </trkpt>
      <trkpt lat="43.5513" lon="1.4733">
        <ele>232.174</ele>
        <time>2020-04-01T14:42:58Z</time>
      </trkpt>
      <trkpt lat="43.55132" lon="1.47337">
        <ele>232.037</ele>
        <time>2020-04-01T14:43:03Z</time>
      </trkpt>
      <trkpt lat="43.55132" lon="1.47343">
        <ele>231.898</ele>
        <time>2020-04-01T14:43:08Z</time>
      </trkpt>
      <trkpt lat="43.55131" lon="1.47349">
        <ele>231.724</ele>
        <time>2020-04-01T14:43:14Z</time>
      </trkpt>
      <trkpt lat="43.55133" lon="1.47354">
        <ele>231.577</ele>
        <time>2020-04-01T14:43:19Z</time>
      </trkpt>
      <trkpt lat="43.55136" lon="1.47362">
        <ele>231.4</ele>
        <time>2020-04-01T14:43:25Z</time>
      </trkpt>
      <trkpt lat="43.55138" lon="1.47371">
        <ele>231.223</ele>
        <time>2020-04-01T14:43:31Z</time>
      </trkpt>
      <trkpt lat="43.55141" lon="1.47381">
        <ele>231.048</ele>
        <time>2020-04-01T14:43:37Z</time>
      </trkpt>
      <trkpt lat="43.55147" lon="1.47392">
        <ele>230.878</ele>
        <time>2020-04-01T14:43:43Z</time>
      </trkpt>
      <trkpt lat="43.5515" lon="1.474">
        <ele>230.741</ele>
        <time>2020-04-01T14:43:48Z</time>
      </trkpt>
      <trkpt lat="43.55152" lon="1.47408">
        <ele>230.581</ele>
        <time>2020-04-01T14:43:54Z</time>
      </trkpt>
      <trkpt lat="43.55154" lon="1.47415">
        <ele>230.427</ele>
        <time>2020-04-01T14:44:00Z</time>
      </trkpt>
      <trkpt lat="43.55155" lon="1.47421">
        <ele>230.301</ele>
        <time>2020-04-01T14:44:05Z</time>
      </trkpt>
      <trkpt lat="43.55156" lon="1.47429">
        <ele>230.149</ele>
        <time>2020-04-01T14:44:11Z</time>
      </trkpt>
      <trkpt lat="43.55158" lon="1.47438">
        <ele>229.987</ele>
        <time>2020-04-01T14:44:17Z</time>
      </trkpt>
      <trkpt lat="43.5516" lon="1.47445">
        <ele>229.817</ele>
        <time>2020-04-01T14:44:23Z</time>
      </trkpt>
      <trkpt lat="43.55161" lon="1.47452">
        <ele>229.637</ele>
        <time>2020-04-01T14:44:29Z</time>
      </trkpt>
      <trkpt lat="43.55164" lon="1.47459">
        <ele>229.449</ele>
        <time>2020-04-01T14:44:35Z</time>
      </trkpt>
      <trkpt lat="43.55168" lon="1.47467">
        <ele>229.285</ele>
        <time>2020-04-01T14:44:40Z</time>
      </trkpt>
      <trkpt lat="43.55172" lon="1.47478">
        <ele>229.083</ele>
        <time>2020-04-01T14:44:46Z</time>
      </trkpt>
      <trkpt lat="43.55177" lon="1.47487">
        <ele>228.879</ele>
        <time>2020-04-01T14:44:52Z</time>
      </trkpt>
      <trkpt lat="43.5518" lon="1.47493">
        <ele>228.676</ele>
        <time>2020-04-01T14:44:58Z</time>
      </trkpt>
      <trkpt lat="43.55183" lon="1.475">
        <ele>228.475</ele>
        <time>2020-04-01T14:45:04Z</time>
      </trkpt>
      <trkpt lat="43.55187" lon="1.47507">
        <ele>228.275</ele>
        <time>2020-04-01T14:45:10Z</time>
      </trkpt>
      <trkpt lat="43.55193" lon="1.47518">
        <ele>228.073</ele>
        <time>2020-04-01T14:45:16Z</time>
      </trkpt>
      <trkpt lat="43.55195" lon="1.47523">
        <ele>227.904</ele>
        <time>2020-04-01T14:45:21Z</time>
      </trkpt>
      <trkpt lat="43.5519" lon="1.47531">
        <ele>227.696</ele>
        <time>2020-04-01T14:45:27Z</time>
      </trkpt>
      <trkpt lat="43.55184" lon="1.47536">
        <ele>227.492</ele>
        <time>2020-04-01T14:45:33Z</time>
      </trkpt>
      <trkpt lat="43.55177" lon="1.47542">
        <ele>227.335</ele>
        <time>2020-04-01T14:45:38Z</time>
      </trkpt>
      <trkpt lat="43.55173" lon="1.47545">
        <ele>227.191</ele>
        <time>2020-04-01T14:45:43Z</time>
      </trkpt>
      <trkpt lat="43.55166" lon="1.47547">
        <ele>227.059</ele>
        <time>2020-04-01T14:45:48Z</time>
      </trkpt>
      <trkpt lat="43.55162" lon="1.47555">
        <ele>226.911</ele>
        <time>2020-04-01T14:45:54Z</time>
      </trkpt>
      <trkpt lat="43.55157" lon="1.47561">
        <ele>226.77</ele>
        <time>2020-04-01T14:46:00Z</time>
      </trkpt>
      <trkpt lat="43.55155" lon="1.47564">
        <ele>226.717</ele>
        <time>2020-04-01T14:46:05Z</time>
      </trkpt>
      <trkpt lat="43.55155" lon="1.47564">
        <ele>226.662</ele>
        <time>2020-04-01T14:46:11Z</time>
      </trkpt>
      <trkpt lat="43.55155" lon="1.47564">
        <ele>226.651</ele>
        <time>2020-04-01T14:46:16Z</time>
      </trkpt>
      <trkpt lat="43.55155" lon="1.47564">
        <ele>226.636</ele>
        <time>2020-04-01T14:46:22Z</time>
      </trkpt>
      <trkpt lat="43.55155" lon="1.47565">
        <ele>226.572</ele>
        <time>2020-04-01T14:46:27Z</time>
      </trkpt>
      <trkpt lat="43.55154" lon="1.47566">
        <ele>226.555</ele>
        <time>2020-04-01T14:46:33Z</time>
      </trkpt>
      <trkpt lat="43.55154" lon="1.47567">
        <ele>226.434</ele>
        <time>2020-04-01T14:46:39Z</time>
      </trkpt>
      <trkpt lat="43.55148" lon="1.47572">
        <ele>226.262</ele>
        <time>2020-04-01T14:46:45Z</time>
      </trkpt>
      <trkpt lat="43.55144" lon="1.47577">
        <ele>226.092</ele>
        <time>2020-04-01T14:46:51Z</time>
      </trkpt>
      <trkpt lat="43.55137" lon="1.47582">
        <ele>225.923</ele>
        <time>2020-04-01T14:46:57Z</time>
      </trkpt>
      <trkpt lat="43.55132" lon="1.47589">
        <ele>225.764</ele>
        <time>2020-04-01T14:47:03Z</time>
      </trkpt>
      <trkpt lat="43.55128" lon="1.47594">
        <ele>225.64</ele>
        <time>2020-04-01T14:47:08Z</time>
      </trkpt>
      <trkpt lat="43.55125" lon="1.47597">
        <ele>225.498</ele>
        <time>2020-04-01T14:47:14Z</time>
      </trkpt>
      <trkpt lat="43.5512" lon="1.476">
        <ele>225.387</ele>
        <time>2020-04-01T14:47:19Z</time>
      </trkpt>
      <trkpt lat="43.55115" lon="1.47604">
        <ele>225.263</ele>
        <time>2020-04-01T14:47:25Z</time>
      </trkpt>
      <trkpt lat="43.5511" lon="1.47608">
        <ele>225.165</ele>
        <time>2020-04-01T14:47:30Z</time>
      </trkpt>
      <trkpt lat="43.55105" lon="1.47612">
        <ele>225.054</ele>
        <time>2020-04-01T14:47:36Z</time>
      </trkpt>
      <trkpt lat="43.551" lon="1.47617">
        <ele>224.951</ele>
        <time>2020-04-01T14:47:42Z</time>
      </trkpt>
      <trkpt lat="43.55095" lon="1.47621">
        <ele>224.856</ele>
        <time>2020-04-01T14:47:48Z</time>
      </trkpt>
      <trkpt lat="43.55091" lon="1.47625">
        <ele>224.781</ele>
        <time>2020-04-01T14:47:53Z</time>
      </trkpt>
      <trkpt lat="43.55086" lon="1.4763">
        <ele>224.695</ele>
        <time>2020-04-01T14:47:59Z</time>
      </trkpt>
      <trkpt lat="43.55081" lon="1.47632">
        <ele>224.625</ele>
        <time>2020-04-01T14:48:04Z</time>
      </trkpt>
      <trkpt lat="43.55076" lon="1.47636">
        <ele>224.542</ele>
        <time>2020-04-01T14:48:10Z</time>
      </trkpt>
      <trkpt lat="43.55072" lon="1.47639">
        <ele>224.475</ele>
        <time>2020-04-01T14:48:15Z</time>
      </trkpt>
      <trkpt lat="43.55066" lon="1.47644">
        <ele>224.399</ele>
        <time>2020-04-01T14:48:21Z</time>
      </trkpt>
      <trkpt lat="43.55061" lon="1.47648">
        <ele>224.324</ele>
        <time>2020-04-01T14:48:27Z</time>
      </trkpt>
      <trkpt lat="43.55057" lon="1.47651">
        <ele>224.267</ele>
        <time>2020-04-01T14:48:32Z</time>
      </trkpt>
      <trkpt lat="43.55052" lon="1.47654">
        <ele>224.213</ele>
        <time>2020-04-01T14:48:37Z</time>
      </trkpt>
      <trkpt lat="43.55048" lon="1.47659">
        <ele>224.149</ele>
        <time>2020-04-01T14:48:43Z</time>
      </trkpt>
      <trkpt lat="43.55045" lon="1.47664">
        <ele>224.097</ele>
        <time>2020-04-01T14:48:48Z</time>
      </trkpt>
      <trkpt lat="43.55041" lon="1.47669">
        <ele>224.036</ele>
        <time>2020-04-01T14:48:54Z</time>
      </trkpt>
      <trkpt lat="43.55037" lon="1.47672">
        <ele>223.978</ele>
        <time>2020-04-01T14:49:00Z</time>
      </trkpt>
      <trkpt lat="43.55035" lon="1.47673">
        <ele>223.938</ele>
        <time>2020-04-01T14:49:05Z</time>
      </trkpt>
      <trkpt lat="43.55037" lon="1.47676">
        <ele>223.891</ele>
        <time>2020-04-01T14:49:10Z</time>
      </trkpt>
      <trkpt lat="43.55038" lon="1.47677">
        <ele>223.868</ele>
        <time>2020-04-01T14:49:15Z</time>
      </trkpt>
      <trkpt lat="43.55038" lon="1.47679">
        <ele>223.85</ele>
        <time>2020-04-01T14:49:21Z</time>
      </trkpt>
      <trkpt lat="43.55037" lon="1.47679">
        <ele>223.829</ele>
        <time>2020-04-01T14:49:26Z</time>
      </trkpt>
      <trkpt lat="43.55037" lon="1.47676">
        <ele>223.782</ele>
        <time>2020-04-01T14:49:32Z</time>
      </trkpt>
      <trkpt lat="43.55039" lon="1.47661">
        <ele>223.286</ele>
        <time>2020-04-01T14:49:42Z</time>
      </trkpt>
      <trkpt lat="43.55043" lon="1.47657">
        <ele>223.2</ele>
        <time>2020-04-01T14:49:48Z</time>
      </trkpt>
    </trkseg>
  </trk>
</gpx>